<?xml version="1.0" encoding="UTF-8"?>
<gpx version="1.1" creator="https://www.youtrack.es" xsi:schemaLocation="http://www.topografix.com/GPX/1/1 http://www.topografix.com/GPX/1/1/gpx.xsd http://www.garmin.com/xmlschemas/GpxExtensions/v3 http://www.garmin.com/xmlschemas/GpxExtensionsv3.xsd http://www.garmin.com/xmlschemas/TrackPointExtension/v1 http://www.garmin.com/xmlschemas/TrackPointExtensionv1.xsd" xmlns:gpxtpx="http://www.garmin.com/xmlschemas/TrackPointExtension/v1" xmlns:gpxx="http://www.garmin.com/xmlschemas/GpxExtensions/v3" xmlns:xsi="http://www.w3.org/2001/XMLSchema-instance">
  <metadata>
    <link href="https://www.youtrack.es">
      <text>YouTrack.es</text>
    </link>
    <time>2026-05-08T14:36:42Z</time>
  </metadata>
  <trk>
    <src>https://www.youtrack.es</src>
    <link href="https://www.youtrack.es/ruta/6868-montanyo-picardes">
      <text>YouTrack.es</text>
    </link>
    <trkseg>
      <trkpt lat="42.506282" lon="1.053094">
        <ele>2133.16</ele>
        <time>2019-02-18T16:37:04Z</time>
      </trkpt>
      <trkpt lat="42.506417" lon="1.052987">
        <ele>2134.16</ele>
        <time>2019-02-18T16:37:24Z</time>
      </trkpt>
      <trkpt lat="42.506551" lon="1.052928">
        <ele>2137.81</ele>
        <time>2019-02-18T16:37:44Z</time>
      </trkpt>
      <trkpt lat="42.506642" lon="1.052831">
        <ele>2138.61</ele>
        <time>2019-02-18T16:38:04Z</time>
      </trkpt>
      <trkpt lat="42.506690" lon="1.052735">
        <ele>2138.05</ele>
        <time>2019-02-18T16:38:24Z</time>
      </trkpt>
      <trkpt lat="42.506793" lon="1.052622">
        <ele>2138.74</ele>
        <time>2019-02-18T16:38:44Z</time>
      </trkpt>
      <trkpt lat="42.506959" lon="1.052574">
        <ele>2141.82</ele>
        <time>2019-02-18T16:39:04Z</time>
      </trkpt>
      <trkpt lat="42.507121" lon="1.052488">
        <ele>2144.58</ele>
        <time>2019-02-18T16:39:24Z</time>
      </trkpt>
      <trkpt lat="42.507220" lon="1.052413">
        <ele>2145.47</ele>
        <time>2019-02-18T16:39:44Z</time>
      </trkpt>
      <trkpt lat="42.507259" lon="1.052472">
        <ele>2147.65</ele>
        <time>2019-02-18T16:40:04Z</time>
      </trkpt>
      <trkpt lat="42.507303" lon="1.052558">
        <ele>2150.37</ele>
        <time>2019-02-18T16:40:24Z</time>
      </trkpt>
      <trkpt lat="42.507465" lon="1.052611">
        <ele>2153.17</ele>
        <time>2019-02-18T16:40:44Z</time>
      </trkpt>
      <trkpt lat="42.507572" lon="1.052687">
        <ele>2154.48</ele>
        <time>2019-02-18T16:41:04Z</time>
      </trkpt>
      <trkpt lat="42.507765" lon="1.052713">
        <ele>2153.26</ele>
        <time>2019-02-18T16:41:24Z</time>
      </trkpt>
      <trkpt lat="42.507833" lon="1.052805">
        <ele>2154.42</ele>
        <time>2019-02-18T16:41:44Z</time>
      </trkpt>
      <trkpt lat="42.507876" lon="1.052890">
        <ele>2155.31</ele>
        <time>2019-02-18T16:42:04Z</time>
      </trkpt>
      <trkpt lat="42.507947" lon="1.052971">
        <ele>2155.96</ele>
        <time>2019-02-18T16:42:24Z</time>
      </trkpt>
      <trkpt lat="42.508007" lon="1.053062">
        <ele>2156.42</ele>
        <time>2019-02-18T16:42:44Z</time>
      </trkpt>
      <trkpt lat="42.508110" lon="1.053196">
        <ele>2157.96</ele>
        <time>2019-02-18T16:43:04Z</time>
      </trkpt>
      <trkpt lat="42.508287" lon="1.053223">
        <ele>2159.32</ele>
        <time>2019-02-18T16:43:24Z</time>
      </trkpt>
      <trkpt lat="42.508418" lon="1.053287">
        <ele>2160.87</ele>
        <time>2019-02-18T16:43:44Z</time>
      </trkpt>
      <trkpt lat="42.508865" lon="1.053384">
        <ele>2169.21</ele>
        <time>2019-02-18T16:46:04Z</time>
      </trkpt>
      <trkpt lat="42.509035" lon="1.053454">
        <ele>2176.98</ele>
        <time>2019-02-18T16:46:24Z</time>
      </trkpt>
      <trkpt lat="42.509154" lon="1.053550">
        <ele>2182.37</ele>
        <time>2019-02-18T16:46:44Z</time>
      </trkpt>
      <trkpt lat="42.509260" lon="1.053647">
        <ele>2187.17</ele>
        <time>2019-02-18T16:47:04Z</time>
      </trkpt>
      <trkpt lat="42.509355" lon="1.053727">
        <ele>2191.38</ele>
        <time>2019-02-18T16:47:24Z</time>
      </trkpt>
      <trkpt lat="42.509442" lon="1.053861">
        <ele>2194.86</ele>
        <time>2019-02-18T16:47:44Z</time>
      </trkpt>
      <trkpt lat="42.509553" lon="1.053765">
        <ele>2197.86</ele>
        <time>2019-02-18T16:48:04Z</time>
      </trkpt>
      <trkpt lat="42.509695" lon="1.053668">
        <ele>2200.46</ele>
        <time>2019-02-18T16:48:24Z</time>
      </trkpt>
      <trkpt lat="42.509857" lon="1.053711">
        <ele>2202.65</ele>
        <time>2019-02-18T16:48:44Z</time>
      </trkpt>
      <trkpt lat="42.510039" lon="1.053615">
        <ele>2202.12</ele>
        <time>2019-02-18T16:49:04Z</time>
      </trkpt>
      <trkpt lat="42.510186" lon="1.053475">
        <ele>2199.98</ele>
        <time>2019-02-18T16:49:24Z</time>
      </trkpt>
      <trkpt lat="42.510336" lon="1.053389">
        <ele>2198.31</ele>
        <time>2019-02-18T16:49:44Z</time>
      </trkpt>
      <trkpt lat="42.510379" lon="1.053287">
        <ele>2196.61</ele>
        <time>2019-02-18T16:50:04Z</time>
      </trkpt>
      <trkpt lat="42.510545" lon="1.053180">
        <ele>2195.73</ele>
        <time>2019-02-18T16:50:24Z</time>
      </trkpt>
      <trkpt lat="42.510660" lon="1.052992">
        <ele>2198.17</ele>
        <time>2019-02-18T16:50:44Z</time>
      </trkpt>
      <trkpt lat="42.510692" lon="1.052794">
        <ele>2200.35</ele>
        <time>2019-02-18T16:51:04Z</time>
      </trkpt>
      <trkpt lat="42.510672" lon="1.052649">
        <ele>2202.68</ele>
        <time>2019-02-18T16:51:24Z</time>
      </trkpt>
      <trkpt lat="42.510652" lon="1.052418">
        <ele>2207.99</ele>
        <time>2019-02-18T16:51:44Z</time>
      </trkpt>
      <trkpt lat="42.510617" lon="1.052316">
        <ele>2210.22</ele>
        <time>2019-02-18T16:52:04Z</time>
      </trkpt>
      <trkpt lat="42.510656" lon="1.052123">
        <ele>2214.46</ele>
        <time>2019-02-18T16:52:24Z</time>
      </trkpt>
      <trkpt lat="42.510680" lon="1.052021">
        <ele>2215.43</ele>
        <time>2019-02-18T16:52:44Z</time>
      </trkpt>
      <trkpt lat="42.510810" lon="1.051877">
        <ele>2217.16</ele>
        <time>2019-02-18T16:53:04Z</time>
      </trkpt>
      <trkpt lat="42.510830" lon="1.051694">
        <ele>2216.15</ele>
        <time>2019-02-18T16:53:24Z</time>
      </trkpt>
      <trkpt lat="42.510806" lon="1.051582">
        <ele>2215.02</ele>
        <time>2019-02-18T16:53:44Z</time>
      </trkpt>
      <trkpt lat="42.510755" lon="1.051404">
        <ele>2213.31</ele>
        <time>2019-02-18T16:54:04Z</time>
      </trkpt>
      <trkpt lat="42.510704" lon="1.051260">
        <ele>2214.72</ele>
        <time>2019-02-18T16:54:24Z</time>
      </trkpt>
      <trkpt lat="42.510672" lon="1.051034">
        <ele>2218.02</ele>
        <time>2019-02-18T16:54:44Z</time>
      </trkpt>
      <trkpt lat="42.510838" lon="1.051072">
        <ele>2220.64</ele>
        <time>2019-02-18T16:55:04Z</time>
      </trkpt>
      <trkpt lat="42.510909" lon="1.050836">
        <ele>2224.89</ele>
        <time>2019-02-18T16:55:24Z</time>
      </trkpt>
      <trkpt lat="42.511095" lon="1.050712">
        <ele>2227.80</ele>
        <time>2019-02-18T16:55:44Z</time>
      </trkpt>
      <trkpt lat="42.511293" lon="1.050793">
        <ele>2231.38</ele>
        <time>2019-02-18T16:56:04Z</time>
      </trkpt>
      <trkpt lat="42.511502" lon="1.050691">
        <ele>2236.45</ele>
        <time>2019-02-18T16:56:24Z</time>
      </trkpt>
      <trkpt lat="42.511633" lon="1.050814">
        <ele>2237.54</ele>
        <time>2019-02-18T16:56:44Z</time>
      </trkpt>
      <trkpt lat="42.511803" lon="1.050702">
        <ele>2241.80</ele>
        <time>2019-02-18T16:57:04Z</time>
      </trkpt>
      <trkpt lat="42.511997" lon="1.050766">
        <ele>2245.11</ele>
        <time>2019-02-18T16:57:24Z</time>
      </trkpt>
      <trkpt lat="42.512179" lon="1.050841">
        <ele>2247.43</ele>
        <time>2019-02-18T16:57:44Z</time>
      </trkpt>
      <trkpt lat="42.512277" lon="1.050777">
        <ele>2250.11</ele>
        <time>2019-02-18T16:58:04Z</time>
      </trkpt>
      <trkpt lat="42.512483" lon="1.050820">
        <ele>2254.05</ele>
        <time>2019-02-18T16:58:24Z</time>
      </trkpt>
      <trkpt lat="42.512665" lon="1.050814">
        <ele>2258.63</ele>
        <time>2019-02-18T16:58:44Z</time>
      </trkpt>
      <trkpt lat="42.512851" lon="1.050900">
        <ele>2260.92</ele>
        <time>2019-02-18T16:59:04Z</time>
      </trkpt>
      <trkpt lat="42.513080" lon="1.050916">
        <ele>2264.25</ele>
        <time>2019-02-18T16:59:24Z</time>
      </trkpt>
      <trkpt lat="42.513199" lon="1.050793">
        <ele>2267.46</ele>
        <time>2019-02-18T16:59:44Z</time>
      </trkpt>
      <trkpt lat="42.513266" lon="1.050621">
        <ele>2268.74</ele>
        <time>2019-02-18T17:00:04Z</time>
      </trkpt>
      <trkpt lat="42.513317" lon="1.050476">
        <ele>2270.29</ele>
        <time>2019-02-18T17:00:24Z</time>
      </trkpt>
      <trkpt lat="42.513349" lon="1.050283">
        <ele>2272.64</ele>
        <time>2019-02-18T17:00:44Z</time>
      </trkpt>
      <trkpt lat="42.513353" lon="1.050053">
        <ele>2276.78</ele>
        <time>2019-02-18T17:01:04Z</time>
      </trkpt>
      <trkpt lat="42.513313" lon="1.049886">
        <ele>2280.19</ele>
        <time>2019-02-18T17:01:24Z</time>
      </trkpt>
      <trkpt lat="42.513313" lon="1.049795">
        <ele>2281.72</ele>
        <time>2019-02-18T17:01:44Z</time>
      </trkpt>
      <trkpt lat="42.513266" lon="1.049677">
        <ele>2283.81</ele>
        <time>2019-02-18T17:02:04Z</time>
      </trkpt>
      <trkpt lat="42.513246" lon="1.049575">
        <ele>2285.23</ele>
        <time>2019-02-18T17:02:24Z</time>
      </trkpt>
      <trkpt lat="42.513238" lon="1.049457">
        <ele>2286.99</ele>
        <time>2019-02-18T17:02:44Z</time>
      </trkpt>
      <trkpt lat="42.513298" lon="1.049269">
        <ele>2286.54</ele>
        <time>2019-02-18T17:03:04Z</time>
      </trkpt>
      <trkpt lat="42.513357" lon="1.049119">
        <ele>2286.13</ele>
        <time>2019-02-18T17:03:24Z</time>
      </trkpt>
      <trkpt lat="42.513365" lon="1.048931">
        <ele>2287.58</ele>
        <time>2019-02-18T17:03:44Z</time>
      </trkpt>
      <trkpt lat="42.513393" lon="1.048803">
        <ele>2288.79</ele>
        <time>2019-02-18T17:04:04Z</time>
      </trkpt>
      <trkpt lat="42.513555" lon="1.048545">
        <ele>2289.85</ele>
        <time>2019-02-18T17:04:24Z</time>
      </trkpt>
      <trkpt lat="42.513630" lon="1.048390">
        <ele>2290.85</ele>
        <time>2019-02-18T17:04:44Z</time>
      </trkpt>
      <trkpt lat="42.513638" lon="1.048170">
        <ele>2294.96</ele>
        <time>2019-02-18T17:05:04Z</time>
      </trkpt>
      <trkpt lat="42.513681" lon="1.048003">
        <ele>2297.44</ele>
        <time>2019-02-18T17:05:24Z</time>
      </trkpt>
      <trkpt lat="42.513796" lon="1.047805">
        <ele>2297.92</ele>
        <time>2019-02-18T17:05:44Z</time>
      </trkpt>
      <trkpt lat="42.513824" lon="1.047633">
        <ele>2300.41</ele>
        <time>2019-02-18T17:06:04Z</time>
      </trkpt>
      <trkpt lat="42.513891" lon="1.047478">
        <ele>2300.50</ele>
        <time>2019-02-18T17:06:24Z</time>
      </trkpt>
      <trkpt lat="42.513958" lon="1.047274">
        <ele>2302.00</ele>
        <time>2019-02-18T17:06:44Z</time>
      </trkpt>
      <trkpt lat="42.513986" lon="1.047140">
        <ele>2304.25</ele>
        <time>2019-02-18T17:07:04Z</time>
      </trkpt>
      <trkpt lat="42.514069" lon="1.046925">
        <ele>2306.73</ele>
        <time>2019-02-18T17:07:24Z</time>
      </trkpt>
      <trkpt lat="42.514128" lon="1.046743">
        <ele>2308.29</ele>
        <time>2019-02-18T17:07:44Z</time>
      </trkpt>
      <trkpt lat="42.514124" lon="1.046614">
        <ele>2311.40</ele>
        <time>2019-02-18T17:08:04Z</time>
      </trkpt>
      <trkpt lat="42.514187" lon="1.046383">
        <ele>2313.90</ele>
        <time>2019-02-18T17:08:24Z</time>
      </trkpt>
      <trkpt lat="42.514377" lon="1.046340">
        <ele>2311.47</ele>
        <time>2019-02-18T17:08:44Z</time>
      </trkpt>
      <trkpt lat="42.514456" lon="1.046222">
        <ele>2313.17</ele>
        <time>2019-02-18T17:09:04Z</time>
      </trkpt>
      <trkpt lat="42.514504" lon="1.046094">
        <ele>2316.18</ele>
        <time>2019-02-18T17:09:24Z</time>
      </trkpt>
      <trkpt lat="42.514579" lon="1.045949">
        <ele>2320.82</ele>
        <time>2019-02-18T17:09:44Z</time>
      </trkpt>
      <trkpt lat="42.514804" lon="1.045852">
        <ele>2327.31</ele>
        <time>2019-02-18T17:10:04Z</time>
      </trkpt>
      <trkpt lat="42.514970" lon="1.045707">
        <ele>2335.67</ele>
        <time>2019-02-18T17:10:24Z</time>
      </trkpt>
      <trkpt lat="42.515164" lon="1.045611">
        <ele>2337.78</ele>
        <time>2019-02-18T17:10:44Z</time>
      </trkpt>
      <trkpt lat="42.515326" lon="1.045504">
        <ele>2339.90</ele>
        <time>2019-02-18T17:11:04Z</time>
      </trkpt>
      <trkpt lat="42.515425" lon="1.045386">
        <ele>2341.95</ele>
        <time>2019-02-18T17:11:24Z</time>
      </trkpt>
      <trkpt lat="42.515567" lon="1.045225">
        <ele>2342.33</ele>
        <time>2019-02-18T17:11:44Z</time>
      </trkpt>
      <trkpt lat="42.515702" lon="1.045058">
        <ele>2345.73</ele>
        <time>2019-02-18T17:12:04Z</time>
      </trkpt>
      <trkpt lat="42.515836" lon="1.044973">
        <ele>2343.03</ele>
        <time>2019-02-18T17:12:24Z</time>
      </trkpt>
      <trkpt lat="42.515911" lon="1.045069">
        <ele>2343.29</ele>
        <time>2019-02-18T17:12:44Z</time>
      </trkpt>
      <trkpt lat="42.515990" lon="1.045144">
        <ele>2345.16</ele>
        <time>2019-02-18T17:13:04Z</time>
      </trkpt>
      <trkpt lat="42.516073" lon="1.045230">
        <ele>2348.15</ele>
        <time>2019-02-18T17:13:24Z</time>
      </trkpt>
      <trkpt lat="42.516224" lon="1.045160">
        <ele>2348.22</ele>
        <time>2019-02-18T17:13:44Z</time>
      </trkpt>
      <trkpt lat="42.516374" lon="1.045225">
        <ele>2350.21</ele>
        <time>2019-02-18T17:14:04Z</time>
      </trkpt>
      <trkpt lat="42.516552" lon="1.045289">
        <ele>2350.56</ele>
        <time>2019-02-18T17:14:24Z</time>
      </trkpt>
      <trkpt lat="42.516710" lon="1.045284">
        <ele>2350.69</ele>
        <time>2019-02-18T17:14:44Z</time>
      </trkpt>
      <trkpt lat="42.516848" lon="1.045198">
        <ele>2351.05</ele>
        <time>2019-02-18T17:15:04Z</time>
      </trkpt>
      <trkpt lat="42.516900" lon="1.045112">
        <ele>2350.37</ele>
        <time>2019-02-18T17:15:24Z</time>
      </trkpt>
      <trkpt lat="42.516955" lon="1.045053">
        <ele>2349.92</ele>
        <time>2019-02-18T17:15:44Z</time>
      </trkpt>
      <trkpt lat="42.517094" lon="1.045107">
        <ele>2352.67</ele>
        <time>2019-02-18T17:16:04Z</time>
      </trkpt>
      <trkpt lat="42.517185" lon="1.044999">
        <ele>2351.64</ele>
        <time>2019-02-18T17:16:24Z</time>
      </trkpt>
      <trkpt lat="42.517295" lon="1.045112">
        <ele>2356.73</ele>
        <time>2019-02-18T17:16:44Z</time>
      </trkpt>
      <trkpt lat="42.517438" lon="1.045026">
        <ele>2359.53</ele>
        <time>2019-02-18T17:17:04Z</time>
      </trkpt>
      <trkpt lat="42.517600" lon="1.044967">
        <ele>2365.29</ele>
        <time>2019-02-18T17:17:24Z</time>
      </trkpt>
      <trkpt lat="42.517726" lon="1.044876">
        <ele>2369.41</ele>
        <time>2019-02-18T17:17:44Z</time>
      </trkpt>
      <trkpt lat="42.517797" lon="1.044774">
        <ele>2370.91</ele>
        <time>2019-02-18T17:18:04Z</time>
      </trkpt>
      <trkpt lat="42.517896" lon="1.044624">
        <ele>2372.17</ele>
        <time>2019-02-18T17:18:24Z</time>
      </trkpt>
      <trkpt lat="42.517963" lon="1.044538">
        <ele>2372.90</ele>
        <time>2019-02-18T17:18:44Z</time>
      </trkpt>
      <trkpt lat="42.518149" lon="1.044538">
        <ele>2378.65</ele>
        <time>2019-02-18T17:19:04Z</time>
      </trkpt>
      <trkpt lat="42.518268" lon="1.044463">
        <ele>2379.14</ele>
        <time>2019-02-18T17:19:24Z</time>
      </trkpt>
      <trkpt lat="42.518402" lon="1.044538">
        <ele>2383.92</ele>
        <time>2019-02-18T17:19:44Z</time>
      </trkpt>
      <trkpt lat="42.518604" lon="1.044468">
        <ele>2386.52</ele>
        <time>2019-02-18T17:20:04Z</time>
      </trkpt>
      <trkpt lat="42.518786" lon="1.044500">
        <ele>2389.15</ele>
        <time>2019-02-18T17:20:24Z</time>
      </trkpt>
      <trkpt lat="42.518920" lon="1.044388">
        <ele>2389.17</ele>
        <time>2019-02-18T17:20:44Z</time>
      </trkpt>
      <trkpt lat="42.519082" lon="1.044248">
        <ele>2391.89</ele>
        <time>2019-02-18T17:21:04Z</time>
      </trkpt>
      <trkpt lat="42.519197" lon="1.044146">
        <ele>2395.91</ele>
        <time>2019-02-18T17:21:24Z</time>
      </trkpt>
      <trkpt lat="42.519320" lon="1.044087">
        <ele>2403.33</ele>
        <time>2019-02-18T17:21:44Z</time>
      </trkpt>
      <trkpt lat="42.519375" lon="1.043959">
        <ele>2407.71</ele>
        <time>2019-02-18T17:22:04Z</time>
      </trkpt>
      <trkpt lat="42.519454" lon="1.043744">
        <ele>2415.21</ele>
        <time>2019-02-18T17:22:24Z</time>
      </trkpt>
      <trkpt lat="42.519486" lon="1.043583">
        <ele>2419.58</ele>
        <time>2019-02-18T17:22:44Z</time>
      </trkpt>
      <trkpt lat="42.519521" lon="1.043417">
        <ele>2420.84</ele>
        <time>2019-02-18T17:23:04Z</time>
      </trkpt>
      <trkpt lat="42.519517" lon="1.043267">
        <ele>2419.72</ele>
        <time>2019-02-18T17:23:24Z</time>
      </trkpt>
      <trkpt lat="42.519541" lon="1.043004">
        <ele>2420.09</ele>
        <time>2019-02-18T17:23:44Z</time>
      </trkpt>
      <trkpt lat="42.519592" lon="1.042838">
        <ele>2420.99</ele>
        <time>2019-02-18T17:24:04Z</time>
      </trkpt>
      <trkpt lat="42.519600" lon="1.042682">
        <ele>2419.29</ele>
        <time>2019-02-18T17:24:24Z</time>
      </trkpt>
      <trkpt lat="42.519675" lon="1.042510">
        <ele>2420.90</ele>
        <time>2019-02-18T17:24:44Z</time>
      </trkpt>
      <trkpt lat="42.519755" lon="1.042355">
        <ele>2421.83</ele>
        <time>2019-02-18T17:25:04Z</time>
      </trkpt>
      <trkpt lat="42.519810" lon="1.042226">
        <ele>2420.79</ele>
        <time>2019-02-18T17:25:24Z</time>
      </trkpt>
      <trkpt lat="42.519976" lon="1.042076">
        <ele>2419.12</ele>
        <time>2019-02-18T17:25:44Z</time>
      </trkpt>
      <trkpt lat="42.520249" lon="1.041968">
        <ele>2417.61</ele>
        <time>2019-02-18T17:26:04Z</time>
      </trkpt>
      <trkpt lat="42.520379" lon="1.041872">
        <ele>2419.07</ele>
        <time>2019-02-18T17:26:24Z</time>
      </trkpt>
      <trkpt lat="42.520439" lon="1.041791">
        <ele>2419.36</ele>
        <time>2019-02-18T17:26:44Z</time>
      </trkpt>
      <trkpt lat="42.520478" lon="1.041631">
        <ele>2417.56</ele>
        <time>2019-02-18T17:27:04Z</time>
      </trkpt>
      <trkpt lat="42.520585" lon="1.041523">
        <ele>2417.32</ele>
        <time>2019-02-18T17:27:24Z</time>
      </trkpt>
      <trkpt lat="42.520700" lon="1.041400">
        <ele>2416.79</ele>
        <time>2019-02-18T17:27:44Z</time>
      </trkpt>
      <trkpt lat="42.520814" lon="1.041158">
        <ele>2416.26</ele>
        <time>2019-02-18T17:28:04Z</time>
      </trkpt>
      <trkpt lat="42.520897" lon="1.040987">
        <ele>2419.95</ele>
        <time>2019-02-18T17:28:24Z</time>
      </trkpt>
      <trkpt lat="42.520949" lon="1.040820">
        <ele>2423.79</ele>
        <time>2019-02-18T17:28:44Z</time>
      </trkpt>
      <trkpt lat="42.520937" lon="1.040601">
        <ele>2426.54</ele>
        <time>2019-02-18T17:29:04Z</time>
      </trkpt>
      <trkpt lat="42.520897" lon="1.040300">
        <ele>2426.95</ele>
        <time>2019-02-18T17:29:24Z</time>
      </trkpt>
      <trkpt lat="42.520897" lon="1.040118">
        <ele>2427.71</ele>
        <time>2019-02-18T17:29:44Z</time>
      </trkpt>
      <trkpt lat="42.520957" lon="1.039817">
        <ele>2428.81</ele>
        <time>2019-02-18T17:30:04Z</time>
      </trkpt>
      <trkpt lat="42.520980" lon="1.039721">
        <ele>2428.65</ele>
        <time>2019-02-18T17:30:24Z</time>
      </trkpt>
      <trkpt lat="42.521028" lon="1.039533">
        <ele>2427.94</ele>
        <time>2019-02-18T17:30:44Z</time>
      </trkpt>
      <trkpt lat="42.521083" lon="1.039356">
        <ele>2427.14</ele>
        <time>2019-02-18T17:31:04Z</time>
      </trkpt>
      <trkpt lat="42.521107" lon="1.039249">
        <ele>2426.57</ele>
        <time>2019-02-18T17:31:24Z</time>
      </trkpt>
      <trkpt lat="42.521071" lon="1.039238">
        <ele>2426.14</ele>
        <time>2019-02-18T17:31:44Z</time>
      </trkpt>
      <trkpt lat="42.521087" lon="1.039361">
        <ele>2427.11</ele>
        <time>2019-02-18T17:32:04Z</time>
      </trkpt>
      <trkpt lat="42.521138" lon="1.039270">
        <ele>2427.73</ele>
        <time>2019-02-18T17:32:24Z</time>
      </trkpt>
      <trkpt lat="42.521186" lon="1.039361">
        <ele>2430.49</ele>
        <time>2019-02-18T17:32:44Z</time>
      </trkpt>
      <trkpt lat="42.521079" lon="1.039479">
        <ele>2428.04</ele>
        <time>2019-02-18T17:33:04Z</time>
      </trkpt>
      <trkpt lat="42.521040" lon="1.039646">
        <ele>2429.07</ele>
        <time>2019-02-18T17:33:24Z</time>
      </trkpt>
      <trkpt lat="42.521004" lon="1.039769">
        <ele>2429.52</ele>
        <time>2019-02-18T17:33:44Z</time>
      </trkpt>
      <trkpt lat="42.521032" lon="1.039941">
        <ele>2431.81</ele>
        <time>2019-02-18T17:34:04Z</time>
      </trkpt>
      <trkpt lat="42.521051" lon="1.040123">
        <ele>2434.90</ele>
        <time>2019-02-18T17:34:24Z</time>
      </trkpt>
      <trkpt lat="42.521028" lon="1.040220">
        <ele>2434.94</ele>
        <time>2019-02-18T17:34:44Z</time>
      </trkpt>
      <trkpt lat="42.521028" lon="1.040284">
        <ele>2435.70</ele>
        <time>2019-02-18T17:35:04Z</time>
      </trkpt>
      <trkpt lat="42.521044" lon="1.040450">
        <ele>2436.13</ele>
        <time>2019-02-18T17:35:24Z</time>
      </trkpt>
      <trkpt lat="42.521036" lon="1.040590">
        <ele>2434.34</ele>
        <time>2019-02-18T17:35:44Z</time>
      </trkpt>
      <trkpt lat="42.521047" lon="1.040702">
        <ele>2432.72</ele>
        <time>2019-02-18T17:36:04Z</time>
      </trkpt>
      <trkpt lat="42.521051" lon="1.040853">
        <ele>2430.04</ele>
        <time>2019-02-18T17:36:24Z</time>
      </trkpt>
      <trkpt lat="42.521044" lon="1.040992">
        <ele>2428.83</ele>
        <time>2019-02-18T17:36:44Z</time>
      </trkpt>
      <trkpt lat="42.521055" lon="1.041089">
        <ele>2428.95</ele>
        <time>2019-02-18T17:37:04Z</time>
      </trkpt>
      <trkpt lat="42.521051" lon="1.041223">
        <ele>2428.13</ele>
        <time>2019-02-18T17:37:24Z</time>
      </trkpt>
      <trkpt lat="42.521040" lon="1.041335">
        <ele>2427.12</ele>
        <time>2019-02-18T17:37:44Z</time>
      </trkpt>
      <trkpt lat="42.521016" lon="1.041421">
        <ele>2426.21</ele>
        <time>2019-02-18T17:38:04Z</time>
      </trkpt>
      <trkpt lat="42.521004" lon="1.041588">
        <ele>2427.69</ele>
        <time>2019-02-18T17:38:24Z</time>
      </trkpt>
      <trkpt lat="42.520957" lon="1.041775">
        <ele>2429.32</ele>
        <time>2019-02-18T17:38:44Z</time>
      </trkpt>
      <trkpt lat="42.520929" lon="1.041920">
        <ele>2431.88</ele>
        <time>2019-02-18T17:39:04Z</time>
      </trkpt>
      <trkpt lat="42.520921" lon="1.042070">
        <ele>2435.12</ele>
        <time>2019-02-18T17:39:24Z</time>
      </trkpt>
      <trkpt lat="42.520885" lon="1.042285">
        <ele>2438.69</ele>
        <time>2019-02-18T17:39:44Z</time>
      </trkpt>
      <trkpt lat="42.520917" lon="1.042500">
        <ele>2439.66</ele>
        <time>2019-02-18T17:40:04Z</time>
      </trkpt>
      <trkpt lat="42.521028" lon="1.042569">
        <ele>2441.15</ele>
        <time>2019-02-18T17:40:24Z</time>
      </trkpt>
      <trkpt lat="42.521040" lon="1.042693">
        <ele>2442.41</ele>
        <time>2019-02-18T17:40:44Z</time>
      </trkpt>
      <trkpt lat="42.521111" lon="1.042746">
        <ele>2442.90</ele>
        <time>2019-02-18T17:41:04Z</time>
      </trkpt>
      <trkpt lat="42.521130" lon="1.042838">
        <ele>2443.92</ele>
        <time>2019-02-18T17:41:24Z</time>
      </trkpt>
      <trkpt lat="42.521079" lon="1.042897">
        <ele>2445.13</ele>
        <time>2019-02-18T17:41:44Z</time>
      </trkpt>
      <trkpt lat="42.521071" lon="1.043031">
        <ele>2447.41</ele>
        <time>2019-02-18T17:42:04Z</time>
      </trkpt>
      <trkpt lat="42.521174" lon="1.043165">
        <ele>2448.58</ele>
        <time>2019-02-18T17:42:24Z</time>
      </trkpt>
      <trkpt lat="42.521245" lon="1.043251">
        <ele>2448.44</ele>
        <time>2019-02-18T17:42:44Z</time>
      </trkpt>
      <trkpt lat="42.521336" lon="1.043374">
        <ele>2447.49</ele>
        <time>2019-02-18T17:43:04Z</time>
      </trkpt>
      <trkpt lat="42.521451" lon="1.043444">
        <ele>2446.52</ele>
        <time>2019-02-18T17:43:24Z</time>
      </trkpt>
      <trkpt lat="42.521439" lon="1.043599">
        <ele>2448.40</ele>
        <time>2019-02-18T17:43:44Z</time>
      </trkpt>
      <trkpt lat="42.521506" lon="1.043755">
        <ele>2449.53</ele>
        <time>2019-02-18T17:44:04Z</time>
      </trkpt>
      <trkpt lat="42.521569" lon="1.043900">
        <ele>2449.56</ele>
        <time>2019-02-18T17:44:24Z</time>
      </trkpt>
      <trkpt lat="42.521684" lon="1.044007">
        <ele>2447.85</ele>
        <time>2019-02-18T17:44:44Z</time>
      </trkpt>
      <trkpt lat="42.521712" lon="1.044146">
        <ele>2448.80</ele>
        <time>2019-02-18T17:45:04Z</time>
      </trkpt>
      <trkpt lat="42.521743" lon="1.044286">
        <ele>2449.55</ele>
        <time>2019-02-18T17:45:24Z</time>
      </trkpt>
      <trkpt lat="42.521712" lon="1.044447">
        <ele>2450.72</ele>
        <time>2019-02-18T17:45:44Z</time>
      </trkpt>
      <trkpt lat="42.521767" lon="1.044597">
        <ele>2450.71</ele>
        <time>2019-02-18T17:46:04Z</time>
      </trkpt>
      <trkpt lat="42.521803" lon="1.044758">
        <ele>2451.68</ele>
        <time>2019-02-18T17:46:24Z</time>
      </trkpt>
      <trkpt lat="42.521890" lon="1.044876">
        <ele>2453.85</ele>
        <time>2019-02-18T17:46:44Z</time>
      </trkpt>
      <trkpt lat="42.522139" lon="1.044865">
        <ele>2452.56</ele>
        <time>2019-02-18T17:47:04Z</time>
      </trkpt>
      <trkpt lat="42.522356" lon="1.045005">
        <ele>2451.75</ele>
        <time>2019-02-18T17:47:24Z</time>
      </trkpt>
      <trkpt lat="42.522364" lon="1.045091">
        <ele>2452.98</ele>
        <time>2019-02-18T17:47:44Z</time>
      </trkpt>
      <trkpt lat="42.522408" lon="1.045235">
        <ele>2453.75</ele>
        <time>2019-02-18T17:48:04Z</time>
      </trkpt>
      <trkpt lat="42.522447" lon="1.045445">
        <ele>2456.28</ele>
        <time>2019-02-18T17:48:24Z</time>
      </trkpt>
      <trkpt lat="42.522546" lon="1.045595">
        <ele>2457.74</ele>
        <time>2019-02-18T17:48:44Z</time>
      </trkpt>
      <trkpt lat="42.522605" lon="1.045691">
        <ele>2460.13</ele>
        <time>2019-02-18T17:49:04Z</time>
      </trkpt>
      <trkpt lat="42.522613" lon="1.045783">
        <ele>2463.39</ele>
        <time>2019-02-18T17:49:24Z</time>
      </trkpt>
      <trkpt lat="42.522668" lon="1.045917">
        <ele>2465.51</ele>
        <time>2019-02-18T17:49:44Z</time>
      </trkpt>
      <trkpt lat="42.522665" lon="1.046013">
        <ele>2467.51</ele>
        <time>2019-02-18T17:50:04Z</time>
      </trkpt>
      <trkpt lat="42.522676" lon="1.046201">
        <ele>2470.98</ele>
        <time>2019-02-18T17:50:24Z</time>
      </trkpt>
      <trkpt lat="42.522807" lon="1.046330">
        <ele>2472.03</ele>
        <time>2019-02-18T17:50:44Z</time>
      </trkpt>
      <trkpt lat="42.522787" lon="1.046442">
        <ele>2474.15</ele>
        <time>2019-02-18T17:51:04Z</time>
      </trkpt>
      <trkpt lat="42.522803" lon="1.046571">
        <ele>2476.63</ele>
        <time>2019-02-18T17:51:24Z</time>
      </trkpt>
      <trkpt lat="42.522854" lon="1.046684">
        <ele>2479.24</ele>
        <time>2019-02-18T17:51:44Z</time>
      </trkpt>
      <trkpt lat="42.523040" lon="1.046727">
        <ele>2482.74</ele>
        <time>2019-02-18T17:52:04Z</time>
      </trkpt>
      <trkpt lat="42.523273" lon="1.046689">
        <ele>2489.00</ele>
        <time>2019-02-18T17:52:24Z</time>
      </trkpt>
      <trkpt lat="42.523487" lon="1.046705">
        <ele>2494.93</ele>
        <time>2019-02-18T17:52:44Z</time>
      </trkpt>
      <trkpt lat="42.523677" lon="1.046770">
        <ele>2500.86</ele>
        <time>2019-02-18T17:53:04Z</time>
      </trkpt>
      <trkpt lat="42.523878" lon="1.046850">
        <ele>2505.21</ele>
        <time>2019-02-18T17:53:24Z</time>
      </trkpt>
      <trkpt lat="42.524044" lon="1.046941">
        <ele>2510.02</ele>
        <time>2019-02-18T17:53:44Z</time>
      </trkpt>
      <trkpt lat="42.524278" lon="1.047016">
        <ele>2516.21</ele>
        <time>2019-02-18T17:54:04Z</time>
      </trkpt>
      <trkpt lat="42.524507" lon="1.047011">
        <ele>2519.59</ele>
        <time>2019-02-18T17:54:24Z</time>
      </trkpt>
      <trkpt lat="42.524685" lon="1.046968">
        <ele>2519.06</ele>
        <time>2019-02-18T17:54:44Z</time>
      </trkpt>
      <trkpt lat="42.524875" lon="1.047006">
        <ele>2521.45</ele>
        <time>2019-02-18T17:55:04Z</time>
      </trkpt>
      <trkpt lat="42.524958" lon="1.047097">
        <ele>2526.75</ele>
        <time>2019-02-18T17:55:24Z</time>
      </trkpt>
      <trkpt lat="42.525052" lon="1.047188">
        <ele>2531.74</ele>
        <time>2019-02-18T17:55:44Z</time>
      </trkpt>
      <trkpt lat="42.525068" lon="1.047247">
        <ele>2534.76</ele>
        <time>2019-02-18T17:56:04Z</time>
      </trkpt>
      <trkpt lat="42.525191" lon="1.047333">
        <ele>2537.48</ele>
        <time>2019-02-18T17:56:24Z</time>
      </trkpt>
      <trkpt lat="42.525329" lon="1.047462">
        <ele>2541.14</ele>
        <time>2019-02-18T17:56:44Z</time>
      </trkpt>
      <trkpt lat="42.525531" lon="1.047478">
        <ele>2540.24</ele>
        <time>2019-02-18T17:57:04Z</time>
      </trkpt>
      <trkpt lat="42.525590" lon="1.047564">
        <ele>2542.52</ele>
        <time>2019-02-18T17:57:24Z</time>
      </trkpt>
      <trkpt lat="42.525642" lon="1.047682">
        <ele>2545.62</ele>
        <time>2019-02-18T17:57:44Z</time>
      </trkpt>
      <trkpt lat="42.525808" lon="1.047671">
        <ele>2541.41</ele>
        <time>2019-02-18T17:58:04Z</time>
      </trkpt>
      <trkpt lat="42.525835" lon="1.047751">
        <ele>2543.97</ele>
        <time>2019-02-18T17:58:24Z</time>
      </trkpt>
      <trkpt lat="42.525938" lon="1.047843">
        <ele>2545.19</ele>
        <time>2019-02-18T17:58:44Z</time>
      </trkpt>
      <trkpt lat="42.526017" lon="1.047918">
        <ele>2546.11</ele>
        <time>2019-02-18T17:59:04Z</time>
      </trkpt>
      <trkpt lat="42.526187" lon="1.047982">
        <ele>2545.15</ele>
        <time>2019-02-18T17:59:24Z</time>
      </trkpt>
      <trkpt lat="42.526258" lon="1.048062">
        <ele>2547.26</ele>
        <time>2019-02-18T17:59:44Z</time>
      </trkpt>
      <trkpt lat="42.526337" lon="1.048138">
        <ele>2549.12</ele>
        <time>2019-02-18T18:00:04Z</time>
      </trkpt>
      <trkpt lat="42.526495" lon="1.048191">
        <ele>2550.84</ele>
        <time>2019-02-18T18:00:24Z</time>
      </trkpt>
      <trkpt lat="42.526662" lon="1.048250">
        <ele>2553.32</ele>
        <time>2019-02-18T18:00:44Z</time>
      </trkpt>
      <trkpt lat="42.526780" lon="1.048331">
        <ele>2556.34</ele>
        <time>2019-02-18T18:01:04Z</time>
      </trkpt>
      <trkpt lat="42.526962" lon="1.048357">
        <ele>2557.95</ele>
        <time>2019-02-18T18:01:24Z</time>
      </trkpt>
      <trkpt lat="42.527164" lon="1.048406">
        <ele>2561.11</ele>
        <time>2019-02-18T18:01:44Z</time>
      </trkpt>
      <trkpt lat="42.527365" lon="1.048476">
        <ele>2565.41</ele>
        <time>2019-02-18T18:02:04Z</time>
      </trkpt>
      <trkpt lat="42.527535" lon="1.048465">
        <ele>2568.32</ele>
        <time>2019-02-18T18:02:24Z</time>
      </trkpt>
      <trkpt lat="42.527559" lon="1.048572">
        <ele>2571.03</ele>
        <time>2019-02-18T18:02:44Z</time>
      </trkpt>
      <trkpt lat="42.527709" lon="1.048642">
        <ele>2576.80</ele>
        <time>2019-02-18T18:03:04Z</time>
      </trkpt>
      <trkpt lat="42.527764" lon="1.048733">
        <ele>2580.33</ele>
        <time>2019-02-18T18:03:24Z</time>
      </trkpt>
      <trkpt lat="42.527931" lon="1.048712">
        <ele>2585.96</ele>
        <time>2019-02-18T18:03:44Z</time>
      </trkpt>
      <trkpt lat="42.527990" lon="1.048787">
        <ele>2589.96</ele>
        <time>2019-02-18T18:04:04Z</time>
      </trkpt>
      <trkpt lat="42.528112" lon="1.048669">
        <ele>2592.67</ele>
        <time>2019-02-18T18:04:24Z</time>
      </trkpt>
      <trkpt lat="42.528255" lon="1.048561">
        <ele>2599.03</ele>
        <time>2019-02-18T18:04:44Z</time>
      </trkpt>
      <trkpt lat="42.528314" lon="1.048449">
        <ele>2601.69</ele>
        <time>2019-02-18T18:05:04Z</time>
      </trkpt>
      <trkpt lat="42.528413" lon="1.048352">
        <ele>2607.38</ele>
        <time>2019-02-18T18:05:24Z</time>
      </trkpt>
      <trkpt lat="42.528472" lon="1.048239">
        <ele>2610.62</ele>
        <time>2019-02-18T18:05:44Z</time>
      </trkpt>
      <trkpt lat="42.528583" lon="1.048127">
        <ele>2616.31</ele>
        <time>2019-02-18T18:06:04Z</time>
      </trkpt>
      <trkpt lat="42.528662" lon="1.047993">
        <ele>2619.95</ele>
        <time>2019-02-18T18:06:24Z</time>
      </trkpt>
      <trkpt lat="42.528784" lon="1.047891">
        <ele>2627.06</ele>
        <time>2019-02-18T18:06:44Z</time>
      </trkpt>
      <trkpt lat="42.528852" lon="1.047800">
        <ele>2630.84</ele>
        <time>2019-02-18T18:07:04Z</time>
      </trkpt>
      <trkpt lat="42.528899" lon="1.047719">
        <ele>2633.78</ele>
        <time>2019-02-18T18:07:24Z</time>
      </trkpt>
      <trkpt lat="42.528923" lon="1.047623">
        <ele>2635.43</ele>
        <time>2019-02-18T18:07:44Z</time>
      </trkpt>
      <trkpt lat="42.528990" lon="1.047499">
        <ele>2639.94</ele>
        <time>2019-02-18T18:08:04Z</time>
      </trkpt>
      <trkpt lat="42.529010" lon="1.047370">
        <ele>2642.07</ele>
        <time>2019-02-18T18:08:24Z</time>
      </trkpt>
      <trkpt lat="42.529109" lon="1.047258">
        <ele>2649.15</ele>
        <time>2019-02-18T18:08:44Z</time>
      </trkpt>
      <trkpt lat="42.529156" lon="1.047102">
        <ele>2654.52</ele>
        <time>2019-02-18T18:09:04Z</time>
      </trkpt>
      <trkpt lat="42.529215" lon="1.046947">
        <ele>2661.41</ele>
        <time>2019-02-18T18:09:24Z</time>
      </trkpt>
      <trkpt lat="42.529223" lon="1.046764">
        <ele>2666.72</ele>
        <time>2019-02-18T18:09:44Z</time>
      </trkpt>
      <trkpt lat="42.529306" lon="1.046673">
        <ele>2673.91</ele>
        <time>2019-02-18T18:10:04Z</time>
      </trkpt>
      <trkpt lat="42.529362" lon="1.046512">
        <ele>2679.82</ele>
        <time>2019-02-18T18:10:24Z</time>
      </trkpt>
      <trkpt lat="42.529417" lon="1.046335">
        <ele>2685.39</ele>
        <time>2019-02-18T18:10:44Z</time>
      </trkpt>
      <trkpt lat="42.529547" lon="1.046212">
        <ele>2693.76</ele>
        <time>2019-02-18T18:11:04Z</time>
      </trkpt>
      <trkpt lat="42.529591" lon="1.046088">
        <ele>2697.26</ele>
        <time>2019-02-18T18:11:24Z</time>
      </trkpt>
      <trkpt lat="42.529757" lon="1.045992">
        <ele>2707.23</ele>
        <time>2019-02-18T18:11:44Z</time>
      </trkpt>
      <trkpt lat="42.529832" lon="1.045783">
        <ele>2713.05</ele>
        <time>2019-02-18T18:12:04Z</time>
      </trkpt>
      <trkpt lat="42.529927" lon="1.045627">
        <ele>2719.11</ele>
        <time>2019-02-18T18:12:24Z</time>
      </trkpt>
      <trkpt lat="42.529966" lon="1.045525">
        <ele>2721.57</ele>
        <time>2019-02-18T18:12:44Z</time>
      </trkpt>
      <trkpt lat="42.530022" lon="1.045375">
        <ele>2725.54</ele>
        <time>2019-02-18T18:13:04Z</time>
      </trkpt>
      <trkpt lat="42.530042" lon="1.045230">
        <ele>2727.61</ele>
        <time>2019-02-18T18:13:24Z</time>
      </trkpt>
      <trkpt lat="42.530093" lon="1.045112">
        <ele>2731.22</ele>
        <time>2019-02-18T18:13:44Z</time>
      </trkpt>
      <trkpt lat="42.530168" lon="1.045209">
        <ele>2734.61</ele>
        <time>2019-02-18T18:14:04Z</time>
      </trkpt>
      <trkpt lat="42.530279" lon="1.045096">
        <ele>2741.43</ele>
        <time>2019-02-18T18:14:24Z</time>
      </trkpt>
      <trkpt lat="42.530354" lon="1.045160">
        <ele>2744.97</ele>
        <time>2019-02-18T18:14:44Z</time>
      </trkpt>
      <trkpt lat="42.530457" lon="1.045037">
        <ele>2751.96</ele>
        <time>2019-02-18T18:15:04Z</time>
      </trkpt>
      <trkpt lat="42.530559" lon="1.045139">
        <ele>2756.06</ele>
        <time>2019-02-18T18:15:24Z</time>
      </trkpt>
      <trkpt lat="42.530603" lon="1.044983">
        <ele>2760.22</ele>
        <time>2019-02-18T18:15:44Z</time>
      </trkpt>
      <trkpt lat="42.530690" lon="1.044876">
        <ele>2764.57</ele>
        <time>2019-02-18T18:16:04Z</time>
      </trkpt>
      <trkpt lat="42.530737" lon="1.044956">
        <ele>2766.64</ele>
        <time>2019-02-18T18:16:24Z</time>
      </trkpt>
      <trkpt lat="42.530836" lon="1.044817">
        <ele>2771.54</ele>
        <time>2019-02-18T18:16:44Z</time>
      </trkpt>
      <trkpt lat="42.530974" lon="1.044855">
        <ele>2762.14</ele>
        <time>2019-02-18T18:17:04Z</time>
      </trkpt>
      <trkpt lat="42.530974" lon="1.044812">
        <ele>2763.56</ele>
        <time>2019-02-18T18:17:24Z</time>
      </trkpt>
      <trkpt lat="42.530947" lon="1.044838">
        <ele>2764.41</ele>
        <time>2019-02-18T18:17:44Z</time>
      </trkpt>
      <trkpt lat="42.530931" lon="1.044860">
        <ele>2764.81</ele>
        <time>2019-02-18T18:18:04Z</time>
      </trkpt>
      <trkpt lat="42.530931" lon="1.044860">
        <ele>2764.86</ele>
        <time>2019-02-18T18:18:24Z</time>
      </trkpt>
      <trkpt lat="42.530919" lon="1.044892">
        <ele>2765.10</ele>
        <time>2019-02-18T18:18:44Z</time>
      </trkpt>
      <trkpt lat="42.530884" lon="1.044935">
        <ele>2767.10</ele>
        <time>2019-02-18T18:19:04Z</time>
      </trkpt>
      <trkpt lat="42.530844" lon="1.044989">
        <ele>2770.08</ele>
        <time>2019-02-18T18:19:24Z</time>
      </trkpt>
      <trkpt lat="42.530816" lon="1.045074">
        <ele>2764.13</ele>
        <time>2019-02-18T18:19:44Z</time>
      </trkpt>
      <trkpt lat="42.530773" lon="1.045187">
        <ele>2754.95</ele>
        <time>2019-02-18T18:20:04Z</time>
      </trkpt>
      <trkpt lat="42.530749" lon="1.045166">
        <ele>2756.33</ele>
        <time>2019-02-18T18:20:24Z</time>
      </trkpt>
      <trkpt lat="42.530706" lon="1.045235">
        <ele>2752.58</ele>
        <time>2019-02-18T18:20:44Z</time>
      </trkpt>
      <trkpt lat="42.530666" lon="1.045235">
        <ele>2753.14</ele>
        <time>2019-02-18T18:21:04Z</time>
      </trkpt>
      <trkpt lat="42.530611" lon="1.045278">
        <ele>2752.62</ele>
        <time>2019-02-18T18:21:24Z</time>
      </trkpt>
      <trkpt lat="42.530567" lon="1.045370">
        <ele>2749.11</ele>
        <time>2019-02-18T18:21:44Z</time>
      </trkpt>
      <trkpt lat="42.530508" lon="1.045396">
        <ele>2746.91</ele>
        <time>2019-02-18T18:22:04Z</time>
      </trkpt>
      <trkpt lat="42.530480" lon="1.045466">
        <ele>2743.47</ele>
        <time>2019-02-18T18:22:24Z</time>
      </trkpt>
      <trkpt lat="42.530429" lon="1.045552">
        <ele>2739.79</ele>
        <time>2019-02-18T18:22:44Z</time>
      </trkpt>
      <trkpt lat="42.530429" lon="1.045691">
        <ele>2737.88</ele>
        <time>2019-02-18T18:23:04Z</time>
      </trkpt>
      <trkpt lat="42.530397" lon="1.045734">
        <ele>2737.38</ele>
        <time>2019-02-18T18:23:24Z</time>
      </trkpt>
      <trkpt lat="42.530374" lon="1.045874">
        <ele>2735.19</ele>
        <time>2019-02-18T18:23:44Z</time>
      </trkpt>
      <trkpt lat="42.530287" lon="1.045954">
        <ele>2735.47</ele>
        <time>2019-02-18T18:24:04Z</time>
      </trkpt>
      <trkpt lat="42.530271" lon="1.046013">
        <ele>2734.89</ele>
        <time>2019-02-18T18:24:24Z</time>
      </trkpt>
      <trkpt lat="42.530223" lon="1.046078">
        <ele>2732.31</ele>
        <time>2019-02-18T18:24:44Z</time>
      </trkpt>
      <trkpt lat="42.530200" lon="1.046169">
        <ele>2731.08</ele>
        <time>2019-02-18T18:25:04Z</time>
      </trkpt>
      <trkpt lat="42.530172" lon="1.046222">
        <ele>2729.82</ele>
        <time>2019-02-18T18:25:24Z</time>
      </trkpt>
      <trkpt lat="42.530164" lon="1.046287">
        <ele>2729.42</ele>
        <time>2019-02-18T18:25:44Z</time>
      </trkpt>
      <trkpt lat="42.530152" lon="1.046373">
        <ele>2728.91</ele>
        <time>2019-02-18T18:26:04Z</time>
      </trkpt>
      <trkpt lat="42.530140" lon="1.046491">
        <ele>2730.65</ele>
        <time>2019-02-18T18:26:24Z</time>
      </trkpt>
      <trkpt lat="42.530113" lon="1.046593">
        <ele>2731.31</ele>
        <time>2019-02-18T18:26:44Z</time>
      </trkpt>
      <trkpt lat="42.530109" lon="1.046705">
        <ele>2732.13</ele>
        <time>2019-02-18T18:27:04Z</time>
      </trkpt>
      <trkpt lat="42.530093" lon="1.046802">
        <ele>2731.05</ele>
        <time>2019-02-18T18:27:24Z</time>
      </trkpt>
      <trkpt lat="42.530077" lon="1.046898">
        <ele>2730.37</ele>
        <time>2019-02-18T18:27:44Z</time>
      </trkpt>
      <trkpt lat="42.530085" lon="1.046957">
        <ele>2730.58</ele>
        <time>2019-02-18T18:28:04Z</time>
      </trkpt>
      <trkpt lat="42.530061" lon="1.047054">
        <ele>2730.19</ele>
        <time>2019-02-18T18:28:24Z</time>
      </trkpt>
      <trkpt lat="42.530081" lon="1.047172">
        <ele>2730.84</ele>
        <time>2019-02-18T18:28:44Z</time>
      </trkpt>
      <trkpt lat="42.530030" lon="1.047306">
        <ele>2730.63</ele>
        <time>2019-02-18T18:29:04Z</time>
      </trkpt>
      <trkpt lat="42.530018" lon="1.047392">
        <ele>2731.05</ele>
        <time>2019-02-18T18:29:24Z</time>
      </trkpt>
      <trkpt lat="42.530010" lon="1.047515">
        <ele>2731.71</ele>
        <time>2019-02-18T18:29:44Z</time>
      </trkpt>
      <trkpt lat="42.530022" lon="1.047644">
        <ele>2731.11</ele>
        <time>2019-02-18T18:30:04Z</time>
      </trkpt>
      <trkpt lat="42.530006" lon="1.047757">
        <ele>2731.72</ele>
        <time>2019-02-18T18:30:24Z</time>
      </trkpt>
      <trkpt lat="42.529998" lon="1.047837">
        <ele>2732.57</ele>
        <time>2019-02-18T18:30:44Z</time>
      </trkpt>
      <trkpt lat="42.529982" lon="1.047907">
        <ele>2731.74</ele>
        <time>2019-02-18T18:31:04Z</time>
      </trkpt>
      <trkpt lat="42.529998" lon="1.048036">
        <ele>2734.70</ele>
        <time>2019-02-18T18:31:24Z</time>
      </trkpt>
      <trkpt lat="42.529982" lon="1.048132">
        <ele>2733.57</ele>
        <time>2019-02-18T18:31:44Z</time>
      </trkpt>
      <trkpt lat="42.529970" lon="1.048202">
        <ele>2732.76</ele>
        <time>2019-02-18T18:32:04Z</time>
      </trkpt>
      <trkpt lat="42.529959" lon="1.048293">
        <ele>2732.24</ele>
        <time>2019-02-18T18:32:24Z</time>
      </trkpt>
      <trkpt lat="42.529947" lon="1.048400">
        <ele>2732.17</ele>
        <time>2019-02-18T18:32:44Z</time>
      </trkpt>
      <trkpt lat="42.529923" lon="1.048529">
        <ele>2731.55</ele>
        <time>2019-02-18T18:33:04Z</time>
      </trkpt>
      <trkpt lat="42.529907" lon="1.048636">
        <ele>2731.19</ele>
        <time>2019-02-18T18:33:24Z</time>
      </trkpt>
      <trkpt lat="42.529915" lon="1.048728">
        <ele>2732.52</ele>
        <time>2019-02-18T18:33:44Z</time>
      </trkpt>
      <trkpt lat="42.529876" lon="1.048856">
        <ele>2730.31</ele>
        <time>2019-02-18T18:34:04Z</time>
      </trkpt>
      <trkpt lat="42.529864" lon="1.049007">
        <ele>2731.95</ele>
        <time>2019-02-18T18:34:24Z</time>
      </trkpt>
      <trkpt lat="42.529864" lon="1.049130">
        <ele>2734.19</ele>
        <time>2019-02-18T18:34:44Z</time>
      </trkpt>
      <trkpt lat="42.529852" lon="1.049227">
        <ele>2734.26</ele>
        <time>2019-02-18T18:35:04Z</time>
      </trkpt>
      <trkpt lat="42.529844" lon="1.049398">
        <ele>2735.03</ele>
        <time>2019-02-18T18:35:24Z</time>
      </trkpt>
      <trkpt lat="42.529816" lon="1.049532">
        <ele>2733.89</ele>
        <time>2019-02-18T18:35:44Z</time>
      </trkpt>
      <trkpt lat="42.529812" lon="1.049929">
        <ele>2736.35</ele>
        <time>2019-02-18T18:36:04Z</time>
      </trkpt>
      <trkpt lat="42.529800" lon="1.050096">
        <ele>2737.06</ele>
        <time>2019-02-18T18:36:24Z</time>
      </trkpt>
      <trkpt lat="42.529773" lon="1.050358">
        <ele>2737.73</ele>
        <time>2019-02-18T18:36:44Z</time>
      </trkpt>
      <trkpt lat="42.529745" lon="1.050584">
        <ele>2739.08</ele>
        <time>2019-02-18T18:37:04Z</time>
      </trkpt>
      <trkpt lat="42.529717" lon="1.050820">
        <ele>2741.71</ele>
        <time>2019-02-18T18:37:24Z</time>
      </trkpt>
      <trkpt lat="42.529717" lon="1.050949">
        <ele>2743.52</ele>
        <time>2019-02-18T18:37:44Z</time>
      </trkpt>
      <trkpt lat="42.529717" lon="1.051088">
        <ele>2745.61</ele>
        <time>2019-02-18T18:38:04Z</time>
      </trkpt>
      <trkpt lat="42.529741" lon="1.051185">
        <ele>2745.31</ele>
        <time>2019-02-18T18:38:24Z</time>
      </trkpt>
      <trkpt lat="42.529749" lon="1.051254">
        <ele>2744.54</ele>
        <time>2019-02-18T18:38:44Z</time>
      </trkpt>
      <trkpt lat="42.529757" lon="1.051345">
        <ele>2743.34</ele>
        <time>2019-02-18T18:39:04Z</time>
      </trkpt>
      <trkpt lat="42.529749" lon="1.051399">
        <ele>2742.90</ele>
        <time>2019-02-18T18:39:24Z</time>
      </trkpt>
      <trkpt lat="42.529745" lon="1.051480">
        <ele>2741.38</ele>
        <time>2019-02-18T18:39:44Z</time>
      </trkpt>
      <trkpt lat="42.529733" lon="1.051582">
        <ele>2739.92</ele>
        <time>2019-02-18T18:40:04Z</time>
      </trkpt>
      <trkpt lat="42.529709" lon="1.051630">
        <ele>2740.32</ele>
        <time>2019-02-18T18:40:24Z</time>
      </trkpt>
      <trkpt lat="42.529709" lon="1.051683">
        <ele>2739.49</ele>
        <time>2019-02-18T18:40:44Z</time>
      </trkpt>
      <trkpt lat="42.529694" lon="1.051769">
        <ele>2738.94</ele>
        <time>2019-02-18T18:41:04Z</time>
      </trkpt>
      <trkpt lat="42.529686" lon="1.051860">
        <ele>2738.01</ele>
        <time>2019-02-18T18:41:24Z</time>
      </trkpt>
      <trkpt lat="42.529662" lon="1.051898">
        <ele>2739.22</ele>
        <time>2019-02-18T18:41:44Z</time>
      </trkpt>
      <trkpt lat="42.529638" lon="1.051984">
        <ele>2739.81</ele>
        <time>2019-02-18T18:42:04Z</time>
      </trkpt>
      <trkpt lat="42.529638" lon="1.052064">
        <ele>2738.65</ele>
        <time>2019-02-18T18:42:24Z</time>
      </trkpt>
      <trkpt lat="42.529634" lon="1.052129">
        <ele>2738.08</ele>
        <time>2019-02-18T18:42:44Z</time>
      </trkpt>
      <trkpt lat="42.529626" lon="1.052161">
        <ele>2738.27</ele>
        <time>2019-02-18T18:43:04Z</time>
      </trkpt>
      <trkpt lat="42.529611" lon="1.052225">
        <ele>2738.65</ele>
        <time>2019-02-18T18:43:24Z</time>
      </trkpt>
      <trkpt lat="42.529591" lon="1.052333">
        <ele>2740.94</ele>
        <time>2019-02-18T18:43:44Z</time>
      </trkpt>
      <trkpt lat="42.529626" lon="1.052418">
        <ele>2738.32</ele>
        <time>2019-02-18T18:44:04Z</time>
      </trkpt>
      <trkpt lat="42.529623" lon="1.052510">
        <ele>2738.99</ele>
        <time>2019-02-18T18:44:24Z</time>
      </trkpt>
      <trkpt lat="42.529650" lon="1.052606">
        <ele>2737.39</ele>
        <time>2019-02-18T18:44:44Z</time>
      </trkpt>
      <trkpt lat="42.529662" lon="1.052697">
        <ele>2737.52</ele>
        <time>2019-02-18T18:45:04Z</time>
      </trkpt>
      <trkpt lat="42.529709" lon="1.052788">
        <ele>2737.24</ele>
        <time>2019-02-18T18:45:24Z</time>
      </trkpt>
      <trkpt lat="42.529777" lon="1.052928">
        <ele>2730.80</ele>
        <time>2019-02-18T18:45:44Z</time>
      </trkpt>
      <trkpt lat="42.529824" lon="1.053019">
        <ele>2727.61</ele>
        <time>2019-02-18T18:46:04Z</time>
      </trkpt>
      <trkpt lat="42.529860" lon="1.053110">
        <ele>2723.93</ele>
        <time>2019-02-18T18:46:24Z</time>
      </trkpt>
      <trkpt lat="42.529876" lon="1.053207">
        <ele>2720.28</ele>
        <time>2019-02-18T18:46:44Z</time>
      </trkpt>
      <trkpt lat="42.529860" lon="1.053282">
        <ele>2718.68</ele>
        <time>2019-02-18T18:47:04Z</time>
      </trkpt>
      <trkpt lat="42.529872" lon="1.053352">
        <ele>2716.20</ele>
        <time>2019-02-18T18:47:24Z</time>
      </trkpt>
      <trkpt lat="42.529887" lon="1.053421">
        <ele>2713.52</ele>
        <time>2019-02-18T18:47:44Z</time>
      </trkpt>
      <trkpt lat="42.529887" lon="1.053502">
        <ele>2710.79</ele>
        <time>2019-02-18T18:48:04Z</time>
      </trkpt>
      <trkpt lat="42.529915" lon="1.053625">
        <ele>2706.95</ele>
        <time>2019-02-18T18:48:24Z</time>
      </trkpt>
      <trkpt lat="42.529939" lon="1.053727">
        <ele>2706.23</ele>
        <time>2019-02-18T18:48:44Z</time>
      </trkpt>
      <trkpt lat="42.530010" lon="1.053851">
        <ele>2707.28</ele>
        <time>2019-02-18T18:49:04Z</time>
      </trkpt>
      <trkpt lat="42.530042" lon="1.053936">
        <ele>2705.16</ele>
        <time>2019-02-18T18:49:24Z</time>
      </trkpt>
      <trkpt lat="42.530073" lon="1.054033">
        <ele>2703.52</ele>
        <time>2019-02-18T18:49:44Z</time>
      </trkpt>
      <trkpt lat="42.530105" lon="1.054114">
        <ele>2702.71</ele>
        <time>2019-02-18T18:50:04Z</time>
      </trkpt>
      <trkpt lat="42.530140" lon="1.054210">
        <ele>2702.64</ele>
        <time>2019-02-18T18:50:24Z</time>
      </trkpt>
      <trkpt lat="42.530144" lon="1.054280">
        <ele>2702.93</ele>
        <time>2019-02-18T18:50:44Z</time>
      </trkpt>
      <trkpt lat="42.530144" lon="1.054419">
        <ele>2703.64</ele>
        <time>2019-02-18T18:51:04Z</time>
      </trkpt>
      <trkpt lat="42.530164" lon="1.054489">
        <ele>2704.39</ele>
        <time>2019-02-18T18:51:24Z</time>
      </trkpt>
      <trkpt lat="42.530215" lon="1.054580">
        <ele>2706.76</ele>
        <time>2019-02-18T18:51:44Z</time>
      </trkpt>
      <trkpt lat="42.530255" lon="1.054634">
        <ele>2708.99</ele>
        <time>2019-02-18T18:52:04Z</time>
      </trkpt>
      <trkpt lat="42.530287" lon="1.054720">
        <ele>2710.63</ele>
        <time>2019-02-18T18:52:24Z</time>
      </trkpt>
      <trkpt lat="42.530314" lon="1.054800">
        <ele>2711.86</ele>
        <time>2019-02-18T18:52:44Z</time>
      </trkpt>
      <trkpt lat="42.530326" lon="1.054907">
        <ele>2714.66</ele>
        <time>2019-02-18T18:53:04Z</time>
      </trkpt>
      <trkpt lat="42.530370" lon="1.055015">
        <ele>2718.14</ele>
        <time>2019-02-18T18:53:24Z</time>
      </trkpt>
      <trkpt lat="42.530409" lon="1.055117">
        <ele>2721.62</ele>
        <time>2019-02-18T18:53:44Z</time>
      </trkpt>
      <trkpt lat="42.530429" lon="1.055229">
        <ele>2725.91</ele>
        <time>2019-02-18T18:54:04Z</time>
      </trkpt>
      <trkpt lat="42.530484" lon="1.055347">
        <ele>2732.26</ele>
        <time>2019-02-18T18:54:24Z</time>
      </trkpt>
      <trkpt lat="42.530563" lon="1.055417">
        <ele>2737.97</ele>
        <time>2019-02-18T18:54:44Z</time>
      </trkpt>
      <trkpt lat="42.530599" lon="1.055481">
        <ele>2739.53</ele>
        <time>2019-02-18T18:55:04Z</time>
      </trkpt>
      <trkpt lat="42.530642" lon="1.055610">
        <ele>2743.96</ele>
        <time>2019-02-18T18:55:24Z</time>
      </trkpt>
      <trkpt lat="42.530646" lon="1.055696">
        <ele>2747.26</ele>
        <time>2019-02-18T18:55:44Z</time>
      </trkpt>
      <trkpt lat="42.530670" lon="1.055766">
        <ele>2750.22</ele>
        <time>2019-02-18T18:56:04Z</time>
      </trkpt>
      <trkpt lat="42.530670" lon="1.055868">
        <ele>2753.46</ele>
        <time>2019-02-18T18:56:24Z</time>
      </trkpt>
      <trkpt lat="42.530698" lon="1.055932">
        <ele>2754.97</ele>
        <time>2019-02-18T18:56:44Z</time>
      </trkpt>
      <trkpt lat="42.530761" lon="1.056045">
        <ele>2759.46</ele>
        <time>2019-02-18T18:57:04Z</time>
      </trkpt>
      <trkpt lat="42.530832" lon="1.056131">
        <ele>2765.36</ele>
        <time>2019-02-18T18:57:24Z</time>
      </trkpt>
      <trkpt lat="42.530872" lon="1.056200">
        <ele>2765.11</ele>
        <time>2019-02-18T18:57:44Z</time>
      </trkpt>
      <trkpt lat="42.530939" lon="1.056308">
        <ele>2765.91</ele>
        <time>2019-02-18T18:58:04Z</time>
      </trkpt>
      <trkpt lat="42.530951" lon="1.056415">
        <ele>2768.74</ele>
        <time>2019-02-18T18:58:24Z</time>
      </trkpt>
      <trkpt lat="42.531002" lon="1.056522">
        <ele>2770.68</ele>
        <time>2019-02-18T18:58:44Z</time>
      </trkpt>
      <trkpt lat="42.531046" lon="1.056613">
        <ele>2773.54</ele>
        <time>2019-02-18T18:59:04Z</time>
      </trkpt>
      <trkpt lat="42.531105" lon="1.056705">
        <ele>2775.97</ele>
        <time>2019-02-18T18:59:24Z</time>
      </trkpt>
      <trkpt lat="42.531125" lon="1.056764">
        <ele>2773.74</ele>
        <time>2019-02-18T18:59:44Z</time>
      </trkpt>
      <trkpt lat="42.531089" lon="1.056710">
        <ele>2775.34</ele>
        <time>2019-02-18T19:00:04Z</time>
      </trkpt>
      <trkpt lat="42.531069" lon="1.056656">
        <ele>2775.49</ele>
        <time>2019-02-18T19:00:24Z</time>
      </trkpt>
      <trkpt lat="42.531061" lon="1.056646">
        <ele>2774.92</ele>
        <time>2019-02-18T19:00:44Z</time>
      </trkpt>
      <trkpt lat="42.531038" lon="1.056688">
        <ele>2774.44</ele>
        <time>2019-02-18T19:01:04Z</time>
      </trkpt>
      <trkpt lat="42.531038" lon="1.056581">
        <ele>2772.55</ele>
        <time>2019-02-18T19:01:24Z</time>
      </trkpt>
      <trkpt lat="42.531022" lon="1.056538">
        <ele>2771.11</ele>
        <time>2019-02-18T19:01:44Z</time>
      </trkpt>
      <trkpt lat="42.530935" lon="1.056474">
        <ele>2769.61</ele>
        <time>2019-02-18T19:02:04Z</time>
      </trkpt>
      <trkpt lat="42.530923" lon="1.056377">
        <ele>2768.42</ele>
        <time>2019-02-18T19:02:24Z</time>
      </trkpt>
      <trkpt lat="42.530895" lon="1.056345">
        <ele>2768.05</ele>
        <time>2019-02-18T19:02:44Z</time>
      </trkpt>
      <trkpt lat="42.530860" lon="1.056308">
        <ele>2767.97</ele>
        <time>2019-02-18T19:03:04Z</time>
      </trkpt>
      <trkpt lat="42.530824" lon="1.056157">
        <ele>2765.32</ele>
        <time>2019-02-18T19:03:24Z</time>
      </trkpt>
      <trkpt lat="42.530820" lon="1.056147">
        <ele>2764.81</ele>
        <time>2019-02-18T19:03:44Z</time>
      </trkpt>
      <trkpt lat="42.530777" lon="1.056050">
        <ele>2760.32</ele>
        <time>2019-02-18T19:04:04Z</time>
      </trkpt>
      <trkpt lat="42.530753" lon="1.055959">
        <ele>2757.28</ele>
        <time>2019-02-18T19:04:24Z</time>
      </trkpt>
      <trkpt lat="42.530706" lon="1.055830">
        <ele>2753.63</ele>
        <time>2019-02-18T19:04:44Z</time>
      </trkpt>
      <trkpt lat="42.530650" lon="1.055760">
        <ele>2749.87</ele>
        <time>2019-02-18T19:05:04Z</time>
      </trkpt>
      <trkpt lat="42.530615" lon="1.055685">
        <ele>2746.88</ele>
        <time>2019-02-18T19:05:24Z</time>
      </trkpt>
      <trkpt lat="42.530599" lon="1.055605">
        <ele>2744.02</ele>
        <time>2019-02-18T19:05:44Z</time>
      </trkpt>
      <trkpt lat="42.530579" lon="1.055514">
        <ele>2741.11</ele>
        <time>2019-02-18T19:06:04Z</time>
      </trkpt>
      <trkpt lat="42.530563" lon="1.055380">
        <ele>2736.56</ele>
        <time>2019-02-18T19:06:24Z</time>
      </trkpt>
      <trkpt lat="42.530536" lon="1.055304">
        <ele>2733.15</ele>
        <time>2019-02-18T19:06:44Z</time>
      </trkpt>
      <trkpt lat="42.530488" lon="1.055240">
        <ele>2728.53</ele>
        <time>2019-02-18T19:07:04Z</time>
      </trkpt>
      <trkpt lat="42.530429" lon="1.055138">
        <ele>2722.83</ele>
        <time>2019-02-18T19:07:24Z</time>
      </trkpt>
      <trkpt lat="42.530385" lon="1.055079">
        <ele>2720.06</ele>
        <time>2019-02-18T19:07:44Z</time>
      </trkpt>
      <trkpt lat="42.530358" lon="1.055031">
        <ele>2718.37</ele>
        <time>2019-02-18T19:08:04Z</time>
      </trkpt>
      <trkpt lat="42.530302" lon="1.054907">
        <ele>2714.90</ele>
        <time>2019-02-18T19:08:24Z</time>
      </trkpt>
      <trkpt lat="42.530271" lon="1.054789">
        <ele>2712.08</ele>
        <time>2019-02-18T19:08:44Z</time>
      </trkpt>
      <trkpt lat="42.530231" lon="1.054693">
        <ele>2708.19</ele>
        <time>2019-02-18T19:09:04Z</time>
      </trkpt>
      <trkpt lat="42.530215" lon="1.054645">
        <ele>2707.07</ele>
        <time>2019-02-18T19:09:24Z</time>
      </trkpt>
      <trkpt lat="42.530192" lon="1.054591">
        <ele>2705.72</ele>
        <time>2019-02-18T19:09:44Z</time>
      </trkpt>
      <trkpt lat="42.530164" lon="1.054392">
        <ele>2703.91</ele>
        <time>2019-02-18T19:10:04Z</time>
      </trkpt>
      <trkpt lat="42.530132" lon="1.054296">
        <ele>2702.93</ele>
        <time>2019-02-18T19:10:24Z</time>
      </trkpt>
      <trkpt lat="42.530057" lon="1.054092">
        <ele>2704.15</ele>
        <time>2019-02-18T19:10:44Z</time>
      </trkpt>
      <trkpt lat="42.530034" lon="1.053995">
        <ele>2705.33</ele>
        <time>2019-02-18T19:11:04Z</time>
      </trkpt>
      <trkpt lat="42.529962" lon="1.053883">
        <ele>2706.25</ele>
        <time>2019-02-18T19:11:24Z</time>
      </trkpt>
      <trkpt lat="42.529951" lon="1.053802">
        <ele>2706.15</ele>
        <time>2019-02-18T19:11:44Z</time>
      </trkpt>
      <trkpt lat="42.529919" lon="1.053722">
        <ele>2705.92</ele>
        <time>2019-02-18T19:12:04Z</time>
      </trkpt>
      <trkpt lat="42.529883" lon="1.053620">
        <ele>2706.99</ele>
        <time>2019-02-18T19:12:24Z</time>
      </trkpt>
      <trkpt lat="42.529876" lon="1.053545">
        <ele>2709.39</ele>
        <time>2019-02-18T19:12:44Z</time>
      </trkpt>
      <trkpt lat="42.529848" lon="1.053379">
        <ele>2715.64</ele>
        <time>2019-02-18T19:13:04Z</time>
      </trkpt>
      <trkpt lat="42.529832" lon="1.053298">
        <ele>2718.98</ele>
        <time>2019-02-18T19:13:24Z</time>
      </trkpt>
      <trkpt lat="42.529773" lon="1.053121">
        <ele>2728.61</ele>
        <time>2019-02-18T19:13:44Z</time>
      </trkpt>
      <trkpt lat="42.529749" lon="1.053046">
        <ele>2733.21</ele>
        <time>2019-02-18T19:14:04Z</time>
      </trkpt>
      <trkpt lat="42.529674" lon="1.052960">
        <ele>2735.12</ele>
        <time>2019-02-18T19:14:24Z</time>
      </trkpt>
      <trkpt lat="42.529611" lon="1.052923">
        <ele>2735.42</ele>
        <time>2019-02-18T19:14:44Z</time>
      </trkpt>
      <trkpt lat="42.529567" lon="1.052848">
        <ele>2737.96</ele>
        <time>2019-02-18T19:15:04Z</time>
      </trkpt>
      <trkpt lat="42.529539" lon="1.052767">
        <ele>2741.23</ele>
        <time>2019-02-18T19:15:24Z</time>
      </trkpt>
      <trkpt lat="42.529492" lon="1.052681">
        <ele>2745.01</ele>
        <time>2019-02-18T19:15:44Z</time>
      </trkpt>
      <trkpt lat="42.529456" lon="1.052622">
        <ele>2749.05</ele>
        <time>2019-02-18T19:16:04Z</time>
      </trkpt>
      <trkpt lat="42.529433" lon="1.052563">
        <ele>2752.53</ele>
        <time>2019-02-18T19:16:24Z</time>
      </trkpt>
      <trkpt lat="42.529393" lon="1.052499">
        <ele>2756.15</ele>
        <time>2019-02-18T19:16:44Z</time>
      </trkpt>
      <trkpt lat="42.529338" lon="1.052467">
        <ele>2757.53</ele>
        <time>2019-02-18T19:17:04Z</time>
      </trkpt>
      <trkpt lat="42.529283" lon="1.052359">
        <ele>2760.45</ele>
        <time>2019-02-18T19:17:24Z</time>
      </trkpt>
      <trkpt lat="42.529227" lon="1.052327">
        <ele>2763.31</ele>
        <time>2019-02-18T19:17:44Z</time>
      </trkpt>
      <trkpt lat="42.529148" lon="1.052311">
        <ele>2766.41</ele>
        <time>2019-02-18T19:18:04Z</time>
      </trkpt>
      <trkpt lat="42.529093" lon="1.052327">
        <ele>2765.64</ele>
        <time>2019-02-18T19:18:24Z</time>
      </trkpt>
      <trkpt lat="42.528994" lon="1.052327">
        <ele>2765.16</ele>
        <time>2019-02-18T19:18:44Z</time>
      </trkpt>
      <trkpt lat="42.528923" lon="1.052311">
        <ele>2765.36</ele>
        <time>2019-02-18T19:19:04Z</time>
      </trkpt>
      <trkpt lat="42.528848" lon="1.052327">
        <ele>2764.58</ele>
        <time>2019-02-18T19:19:24Z</time>
      </trkpt>
      <trkpt lat="42.528777" lon="1.052327">
        <ele>2764.35</ele>
        <time>2019-02-18T19:19:44Z</time>
      </trkpt>
      <trkpt lat="42.528666" lon="1.052333">
        <ele>2763.95</ele>
        <time>2019-02-18T19:20:04Z</time>
      </trkpt>
      <trkpt lat="42.528610" lon="1.052343">
        <ele>2763.78</ele>
        <time>2019-02-18T19:20:24Z</time>
      </trkpt>
      <trkpt lat="42.528571" lon="1.052386">
        <ele>2763.32</ele>
        <time>2019-02-18T19:20:44Z</time>
      </trkpt>
      <trkpt lat="42.528484" lon="1.052402">
        <ele>2763.56</ele>
        <time>2019-02-18T19:21:04Z</time>
      </trkpt>
      <trkpt lat="42.528433" lon="1.052429">
        <ele>2763.70</ele>
        <time>2019-02-18T19:21:24Z</time>
      </trkpt>
      <trkpt lat="42.528357" lon="1.052429">
        <ele>2764.12</ele>
        <time>2019-02-18T19:21:44Z</time>
      </trkpt>
      <trkpt lat="42.528302" lon="1.052445">
        <ele>2765.01</ele>
        <time>2019-02-18T19:22:04Z</time>
      </trkpt>
      <trkpt lat="42.528235" lon="1.052451">
        <ele>2766.38</ele>
        <time>2019-02-18T19:22:24Z</time>
      </trkpt>
      <trkpt lat="42.528176" lon="1.052451">
        <ele>2767.56</ele>
        <time>2019-02-18T19:22:44Z</time>
      </trkpt>
      <trkpt lat="42.528116" lon="1.052456">
        <ele>2768.72</ele>
        <time>2019-02-18T19:23:04Z</time>
      </trkpt>
      <trkpt lat="42.528029" lon="1.052536">
        <ele>2771.22</ele>
        <time>2019-02-18T19:23:24Z</time>
      </trkpt>
      <trkpt lat="42.527998" lon="1.052585">
        <ele>2771.88</ele>
        <time>2019-02-18T19:23:44Z</time>
      </trkpt>
      <trkpt lat="42.527934" lon="1.052585">
        <ele>2774.34</ele>
        <time>2019-02-18T19:24:04Z</time>
      </trkpt>
      <trkpt lat="42.527867" lon="1.052628">
        <ele>2777.40</ele>
        <time>2019-02-18T19:24:24Z</time>
      </trkpt>
      <trkpt lat="42.527753" lon="1.052676">
        <ele>2782.97</ele>
        <time>2019-02-18T19:24:44Z</time>
      </trkpt>
      <trkpt lat="42.527654" lon="1.052713">
        <ele>2786.98</ele>
        <time>2019-02-18T19:25:04Z</time>
      </trkpt>
      <trkpt lat="42.527587" lon="1.052713">
        <ele>2789.13</ele>
        <time>2019-02-18T19:25:24Z</time>
      </trkpt>
      <trkpt lat="42.527515" lon="1.052713">
        <ele>2791.42</ele>
        <time>2019-02-18T19:25:44Z</time>
      </trkpt>
      <trkpt lat="42.527464" lon="1.052724">
        <ele>2792.61</ele>
        <time>2019-02-18T19:26:04Z</time>
      </trkpt>
      <trkpt lat="42.527397" lon="1.052729">
        <ele>2793.48</ele>
        <time>2019-02-18T19:26:24Z</time>
      </trkpt>
      <trkpt lat="42.527330" lon="1.052719">
        <ele>2793.87</ele>
        <time>2019-02-18T19:26:44Z</time>
      </trkpt>
      <trkpt lat="42.527282" lon="1.052681">
        <ele>2793.52</ele>
        <time>2019-02-18T19:27:04Z</time>
      </trkpt>
      <trkpt lat="42.527211" lon="1.052676">
        <ele>2794.26</ele>
        <time>2019-02-18T19:27:24Z</time>
      </trkpt>
      <trkpt lat="42.527152" lon="1.052713">
        <ele>2794.90</ele>
        <time>2019-02-18T19:27:44Z</time>
      </trkpt>
      <trkpt lat="42.527124" lon="1.052713">
        <ele>2794.88</ele>
        <time>2019-02-18T19:28:04Z</time>
      </trkpt>
      <trkpt lat="42.527085" lon="1.052681">
        <ele>2794.35</ele>
        <time>2019-02-18T19:28:24Z</time>
      </trkpt>
      <trkpt lat="42.527120" lon="1.052810">
        <ele>2793.93</ele>
        <time>2019-02-18T19:28:44Z</time>
      </trkpt>
      <trkpt lat="42.527183" lon="1.052729">
        <ele>2795.16</ele>
        <time>2019-02-18T19:29:04Z</time>
      </trkpt>
      <trkpt lat="42.527199" lon="1.052611">
        <ele>2793.06</ele>
        <time>2019-02-18T19:29:24Z</time>
      </trkpt>
      <trkpt lat="42.527152" lon="1.052644">
        <ele>2793.61</ele>
        <time>2019-02-18T19:29:44Z</time>
      </trkpt>
      <trkpt lat="42.527164" lon="1.052708">
        <ele>2794.71</ele>
        <time>2019-02-18T19:30:04Z</time>
      </trkpt>
      <trkpt lat="42.527085" lon="1.052713">
        <ele>2794.82</ele>
        <time>2019-02-18T19:30:24Z</time>
      </trkpt>
      <trkpt lat="42.526907" lon="1.052697">
        <ele>2793.73</ele>
        <time>2019-02-18T19:30:44Z</time>
      </trkpt>
      <trkpt lat="42.526847" lon="1.052697">
        <ele>2792.46</ele>
        <time>2019-02-18T19:31:04Z</time>
      </trkpt>
      <trkpt lat="42.526756" lon="1.052687">
        <ele>2790.32</ele>
        <time>2019-02-18T19:31:24Z</time>
      </trkpt>
      <trkpt lat="42.526681" lon="1.052638">
        <ele>2788.82</ele>
        <time>2019-02-18T19:31:44Z</time>
      </trkpt>
      <trkpt lat="42.526634" lon="1.052633">
        <ele>2788.03</ele>
        <time>2019-02-18T19:32:04Z</time>
      </trkpt>
      <trkpt lat="42.526582" lon="1.052633">
        <ele>2787.29</ele>
        <time>2019-02-18T19:32:24Z</time>
      </trkpt>
      <trkpt lat="42.526464" lon="1.052590">
        <ele>2786.31</ele>
        <time>2019-02-18T19:32:44Z</time>
      </trkpt>
      <trkpt lat="42.526377" lon="1.052558">
        <ele>2786.10</ele>
        <time>2019-02-18T19:33:04Z</time>
      </trkpt>
      <trkpt lat="42.526306" lon="1.052542">
        <ele>2784.93</ele>
        <time>2019-02-18T19:33:24Z</time>
      </trkpt>
      <trkpt lat="42.526242" lon="1.052493">
        <ele>2784.52</ele>
        <time>2019-02-18T19:33:44Z</time>
      </trkpt>
      <trkpt lat="42.526167" lon="1.052504">
        <ele>2783.11</ele>
        <time>2019-02-18T19:34:04Z</time>
      </trkpt>
      <trkpt lat="42.526108" lon="1.052493">
        <ele>2781.71</ele>
        <time>2019-02-18T19:34:24Z</time>
      </trkpt>
      <trkpt lat="42.526021" lon="1.052488">
        <ele>2780.02</ele>
        <time>2019-02-18T19:34:44Z</time>
      </trkpt>
      <trkpt lat="42.525938" lon="1.052429">
        <ele>2777.15</ele>
        <time>2019-02-18T19:35:04Z</time>
      </trkpt>
      <trkpt lat="42.525879" lon="1.052429">
        <ele>2776.32</ele>
        <time>2019-02-18T19:35:24Z</time>
      </trkpt>
      <trkpt lat="42.525815" lon="1.052392">
        <ele>2775.08</ele>
        <time>2019-02-18T19:35:44Z</time>
      </trkpt>
      <trkpt lat="42.525764" lon="1.052392">
        <ele>2774.76</ele>
        <time>2019-02-18T19:36:04Z</time>
      </trkpt>
      <trkpt lat="42.525705" lon="1.052418">
        <ele>2775.02</ele>
        <time>2019-02-18T19:36:24Z</time>
      </trkpt>
      <trkpt lat="42.525642" lon="1.052467">
        <ele>2776.16</ele>
        <time>2019-02-18T19:36:44Z</time>
      </trkpt>
      <trkpt lat="42.525479" lon="1.052536">
        <ele>2774.97</ele>
        <time>2019-02-18T19:37:04Z</time>
      </trkpt>
      <trkpt lat="42.525416" lon="1.052563">
        <ele>2773.86</ele>
        <time>2019-02-18T19:37:24Z</time>
      </trkpt>
      <trkpt lat="42.525381" lon="1.052563">
        <ele>2773.72</ele>
        <time>2019-02-18T19:37:44Z</time>
      </trkpt>
      <trkpt lat="42.525305" lon="1.052622">
        <ele>2772.61</ele>
        <time>2019-02-18T19:38:04Z</time>
      </trkpt>
      <trkpt lat="42.525262" lon="1.052638">
        <ele>2772.66</ele>
        <time>2019-02-18T19:38:24Z</time>
      </trkpt>
      <trkpt lat="42.525222" lon="1.052644">
        <ele>2772.86</ele>
        <time>2019-02-18T19:38:44Z</time>
      </trkpt>
      <trkpt lat="42.525128" lon="1.052687">
        <ele>2773.48</ele>
        <time>2019-02-18T19:39:04Z</time>
      </trkpt>
      <trkpt lat="42.525033" lon="1.052751">
        <ele>2775.18</ele>
        <time>2019-02-18T19:39:24Z</time>
      </trkpt>
      <trkpt lat="42.524962" lon="1.052740">
        <ele>2775.55</ele>
        <time>2019-02-18T19:39:44Z</time>
      </trkpt>
      <trkpt lat="42.524859" lon="1.052746">
        <ele>2775.97</ele>
        <time>2019-02-18T19:40:04Z</time>
      </trkpt>
      <trkpt lat="42.524720" lon="1.052778">
        <ele>2777.03</ele>
        <time>2019-02-18T19:40:24Z</time>
      </trkpt>
      <trkpt lat="42.524649" lon="1.052778">
        <ele>2777.02</ele>
        <time>2019-02-18T19:40:44Z</time>
      </trkpt>
      <trkpt lat="42.524590" lon="1.052815">
        <ele>2775.70</ele>
        <time>2019-02-18T19:41:04Z</time>
      </trkpt>
      <trkpt lat="42.524535" lon="1.052810">
        <ele>2775.82</ele>
        <time>2019-02-18T19:41:24Z</time>
      </trkpt>
      <trkpt lat="42.524463" lon="1.052794">
        <ele>2776.53</ele>
        <time>2019-02-18T19:41:44Z</time>
      </trkpt>
      <trkpt lat="42.524408" lon="1.052778">
        <ele>2777.11</ele>
        <time>2019-02-18T19:42:04Z</time>
      </trkpt>
      <trkpt lat="42.524341" lon="1.052724">
        <ele>2775.57</ele>
        <time>2019-02-18T19:42:24Z</time>
      </trkpt>
      <trkpt lat="42.524226" lon="1.052746">
        <ele>2776.68</ele>
        <time>2019-02-18T19:42:44Z</time>
      </trkpt>
      <trkpt lat="42.524187" lon="1.052746">
        <ele>2776.78</ele>
        <time>2019-02-18T19:43:04Z</time>
      </trkpt>
      <trkpt lat="42.524040" lon="1.052783">
        <ele>2777.86</ele>
        <time>2019-02-18T19:43:24Z</time>
      </trkpt>
      <trkpt lat="42.523953" lon="1.052799">
        <ele>2777.46</ele>
        <time>2019-02-18T19:43:44Z</time>
      </trkpt>
      <trkpt lat="42.523902" lon="1.052821">
        <ele>2776.92</ele>
        <time>2019-02-18T19:44:04Z</time>
      </trkpt>
      <trkpt lat="42.523760" lon="1.052826">
        <ele>2774.79</ele>
        <time>2019-02-18T19:44:24Z</time>
      </trkpt>
      <trkpt lat="42.523708" lon="1.052890">
        <ele>2773.68</ele>
        <time>2019-02-18T19:44:44Z</time>
      </trkpt>
      <trkpt lat="42.523641" lon="1.052901">
        <ele>2773.17</ele>
        <time>2019-02-18T19:45:04Z</time>
      </trkpt>
      <trkpt lat="42.523574" lon="1.052944">
        <ele>2772.48</ele>
        <time>2019-02-18T19:45:24Z</time>
      </trkpt>
      <trkpt lat="42.523515" lon="1.052949">
        <ele>2771.12</ele>
        <time>2019-02-18T19:45:44Z</time>
      </trkpt>
      <trkpt lat="42.523424" lon="1.053003">
        <ele>2770.61</ele>
        <time>2019-02-18T19:46:04Z</time>
      </trkpt>
      <trkpt lat="42.523380" lon="1.053041">
        <ele>2771.14</ele>
        <time>2019-02-18T19:46:24Z</time>
      </trkpt>
      <trkpt lat="42.523285" lon="1.053073">
        <ele>2768.97</ele>
        <time>2019-02-18T19:46:44Z</time>
      </trkpt>
      <trkpt lat="42.523246" lon="1.053094">
        <ele>2767.47</ele>
        <time>2019-02-18T19:47:04Z</time>
      </trkpt>
      <trkpt lat="42.523178" lon="1.053132">
        <ele>2765.29</ele>
        <time>2019-02-18T19:47:24Z</time>
      </trkpt>
      <trkpt lat="42.523092" lon="1.053143">
        <ele>2763.17</ele>
        <time>2019-02-18T19:47:44Z</time>
      </trkpt>
      <trkpt lat="42.523052" lon="1.053196">
        <ele>2762.93</ele>
        <time>2019-02-18T19:48:04Z</time>
      </trkpt>
      <trkpt lat="42.523012" lon="1.053196">
        <ele>2761.98</ele>
        <time>2019-02-18T19:48:24Z</time>
      </trkpt>
      <trkpt lat="42.522918" lon="1.053250">
        <ele>2760.72</ele>
        <time>2019-02-18T19:48:44Z</time>
      </trkpt>
      <trkpt lat="42.522858" lon="1.053287">
        <ele>2760.38</ele>
        <time>2019-02-18T19:49:04Z</time>
      </trkpt>
      <trkpt lat="42.522751" lon="1.053336">
        <ele>2759.23</ele>
        <time>2019-02-18T19:49:24Z</time>
      </trkpt>
      <trkpt lat="42.522657" lon="1.053395">
        <ele>2756.93</ele>
        <time>2019-02-18T19:49:44Z</time>
      </trkpt>
      <trkpt lat="42.522580" lon="1.053790">
        <ele>2754.14</ele>
        <time>2019-07-16T23:18:24Z</time>
      </trkpt>
      <trkpt lat="42.522520" lon="1.053870">
        <ele>2753.15</ele>
        <time>2019-07-16T23:18:44Z</time>
      </trkpt>
      <trkpt lat="42.522470" lon="1.053960">
        <ele>2750.31</ele>
        <time>2019-07-16T23:19:04Z</time>
      </trkpt>
      <trkpt lat="42.522410" lon="1.054040">
        <ele>2746.81</ele>
        <time>2019-07-16T23:19:24Z</time>
      </trkpt>
      <trkpt lat="42.522360" lon="1.054090">
        <ele>2744.55</ele>
        <time>2019-07-16T23:19:44Z</time>
      </trkpt>
      <trkpt lat="42.522330" lon="1.054170">
        <ele>2742.39</ele>
        <time>2019-07-16T23:20:04Z</time>
      </trkpt>
      <trkpt lat="42.522280" lon="1.054220">
        <ele>2740.86</ele>
        <time>2019-07-16T23:20:24Z</time>
      </trkpt>
      <trkpt lat="42.522210" lon="1.054260">
        <ele>2739.25</ele>
        <time>2019-07-16T23:20:44Z</time>
      </trkpt>
      <trkpt lat="42.522150" lon="1.054320">
        <ele>2736.56</ele>
        <time>2019-07-16T23:21:04Z</time>
      </trkpt>
      <trkpt lat="42.522080" lon="1.054370">
        <ele>2733.54</ele>
        <time>2019-07-16T23:21:24Z</time>
      </trkpt>
      <trkpt lat="42.522040" lon="1.054380">
        <ele>2731.94</ele>
        <time>2019-07-16T23:21:44Z</time>
      </trkpt>
      <trkpt lat="42.522000" lon="1.054400">
        <ele>2730.22</ele>
        <time>2019-07-16T23:22:04Z</time>
      </trkpt>
      <trkpt lat="42.521950" lon="1.054380">
        <ele>2728.25</ele>
        <time>2019-07-16T23:22:24Z</time>
      </trkpt>
      <trkpt lat="42.521910" lon="1.054400">
        <ele>2726.26</ele>
        <time>2019-07-16T23:22:44Z</time>
      </trkpt>
      <trkpt lat="42.521760" lon="1.054430">
        <ele>2718.12</ele>
        <time>2019-07-16T23:23:04Z</time>
      </trkpt>
      <trkpt lat="42.521730" lon="1.054430">
        <ele>2716.51</ele>
        <time>2019-07-16T23:23:24Z</time>
      </trkpt>
      <trkpt lat="42.521550" lon="1.054500">
        <ele>2706.67</ele>
        <time>2019-07-16T23:23:44Z</time>
      </trkpt>
      <trkpt lat="42.521450" lon="1.054520">
        <ele>2701.19</ele>
        <time>2019-07-16T23:24:04Z</time>
      </trkpt>
      <trkpt lat="42.521350" lon="1.054580">
        <ele>2695.18</ele>
        <time>2019-07-16T23:24:24Z</time>
      </trkpt>
      <trkpt lat="42.521310" lon="1.054580">
        <ele>2692.56</ele>
        <time>2019-07-16T23:24:44Z</time>
      </trkpt>
      <trkpt lat="42.521280" lon="1.054610">
        <ele>2690.74</ele>
        <time>2019-07-16T23:25:04Z</time>
      </trkpt>
      <trkpt lat="42.521240" lon="1.054620">
        <ele>2688.26</ele>
        <time>2019-07-16T23:25:24Z</time>
      </trkpt>
      <trkpt lat="42.521210" lon="1.054650">
        <ele>2686.54</ele>
        <time>2019-07-16T23:25:44Z</time>
      </trkpt>
      <trkpt lat="42.521190" lon="1.054650">
        <ele>2685.28</ele>
        <time>2019-07-16T23:26:04Z</time>
      </trkpt>
      <trkpt lat="42.521150" lon="1.054790">
        <ele>2682.94</ele>
        <time>2019-07-16T23:26:24Z</time>
      </trkpt>
      <trkpt lat="42.521060" lon="1.054970">
        <ele>2677.28</ele>
        <time>2019-07-16T23:26:44Z</time>
      </trkpt>
      <trkpt lat="42.521030" lon="1.055070">
        <ele>2675.21</ele>
        <time>2019-07-16T23:27:04Z</time>
      </trkpt>
      <trkpt lat="42.520990" lon="1.055170">
        <ele>2672.71</ele>
        <time>2019-07-16T23:27:24Z</time>
      </trkpt>
      <trkpt lat="42.520900" lon="1.055340">
        <ele>2668.24</ele>
        <time>2019-07-16T23:27:44Z</time>
      </trkpt>
      <trkpt lat="42.520750" lon="1.055590">
        <ele>2661.81</ele>
        <time>2019-07-16T23:28:04Z</time>
      </trkpt>
      <trkpt lat="42.520610" lon="1.055720">
        <ele>2655.99</ele>
        <time>2019-07-16T23:28:24Z</time>
      </trkpt>
      <trkpt lat="42.520550" lon="1.055760">
        <ele>2653.70</ele>
        <time>2019-07-16T23:28:44Z</time>
      </trkpt>
      <trkpt lat="42.520410" lon="1.055890">
        <ele>2648.05</ele>
        <time>2019-07-16T23:29:04Z</time>
      </trkpt>
      <trkpt lat="42.520350" lon="1.055960">
        <ele>2646.53</ele>
        <time>2019-07-16T23:29:24Z</time>
      </trkpt>
      <trkpt lat="42.520240" lon="1.056040">
        <ele>2645.36</ele>
        <time>2019-07-16T23:29:44Z</time>
      </trkpt>
      <trkpt lat="42.520080" lon="1.056120">
        <ele>2642.18</ele>
        <time>2019-07-16T23:30:04Z</time>
      </trkpt>
      <trkpt lat="42.519880" lon="1.056190">
        <ele>2636.55</ele>
        <time>2019-07-16T23:30:24Z</time>
      </trkpt>
      <trkpt lat="42.519840" lon="1.056210">
        <ele>2635.26</ele>
        <time>2019-07-16T23:30:44Z</time>
      </trkpt>
      <trkpt lat="42.519770" lon="1.056220">
        <ele>2632.41</ele>
        <time>2019-07-16T23:31:04Z</time>
      </trkpt>
      <trkpt lat="42.519710" lon="1.056240">
        <ele>2630.21</ele>
        <time>2019-07-16T23:31:24Z</time>
      </trkpt>
      <trkpt lat="42.519550" lon="1.056260">
        <ele>2623.44</ele>
        <time>2019-07-16T23:31:44Z</time>
      </trkpt>
      <trkpt lat="42.519390" lon="1.056320">
        <ele>2617.88</ele>
        <time>2019-07-16T23:32:04Z</time>
      </trkpt>
      <trkpt lat="42.519310" lon="1.056320">
        <ele>2615.05</ele>
        <time>2019-07-16T23:32:24Z</time>
      </trkpt>
      <trkpt lat="42.519160" lon="1.056300">
        <ele>2609.24</ele>
        <time>2019-07-16T23:32:44Z</time>
      </trkpt>
      <trkpt lat="42.519060" lon="1.056330">
        <ele>2605.98</ele>
        <time>2019-07-16T23:33:04Z</time>
      </trkpt>
      <trkpt lat="42.518930" lon="1.056330">
        <ele>2600.41</ele>
        <time>2019-07-16T23:33:24Z</time>
      </trkpt>
      <trkpt lat="42.518860" lon="1.056280">
        <ele>2595.73</ele>
        <time>2019-07-16T23:33:44Z</time>
      </trkpt>
      <trkpt lat="42.518760" lon="1.056260">
        <ele>2589.12</ele>
        <time>2019-07-16T23:34:04Z</time>
      </trkpt>
      <trkpt lat="42.518620" lon="1.056250">
        <ele>2580.55</ele>
        <time>2019-07-16T23:34:24Z</time>
      </trkpt>
      <trkpt lat="42.518480" lon="1.056190">
        <ele>2577.70</ele>
        <time>2019-07-16T23:34:44Z</time>
      </trkpt>
      <trkpt lat="42.518380" lon="1.056220">
        <ele>2573.61</ele>
        <time>2019-07-16T23:35:04Z</time>
      </trkpt>
      <trkpt lat="42.518290" lon="1.056230">
        <ele>2571.01</ele>
        <time>2019-07-16T23:35:24Z</time>
      </trkpt>
      <trkpt lat="42.518210" lon="1.056250">
        <ele>2569.27</ele>
        <time>2019-07-16T23:35:44Z</time>
      </trkpt>
      <trkpt lat="42.518060" lon="1.056250">
        <ele>2567.14</ele>
        <time>2019-07-16T23:36:04Z</time>
      </trkpt>
      <trkpt lat="42.517920" lon="1.056290">
        <ele>2565.19</ele>
        <time>2019-07-16T23:36:24Z</time>
      </trkpt>
      <trkpt lat="42.517840" lon="1.056340">
        <ele>2564.29</ele>
        <time>2019-07-16T23:36:44Z</time>
      </trkpt>
      <trkpt lat="42.517620" lon="1.056530">
        <ele>2560.09</ele>
        <time>2019-07-16T23:37:04Z</time>
      </trkpt>
      <trkpt lat="42.517410" lon="1.056760">
        <ele>2559.07</ele>
        <time>2019-07-16T23:37:24Z</time>
      </trkpt>
      <trkpt lat="42.517270" lon="1.056900">
        <ele>2558.33</ele>
        <time>2019-07-16T23:37:44Z</time>
      </trkpt>
      <trkpt lat="42.517130" lon="1.057080">
        <ele>2556.03</ele>
        <time>2019-07-16T23:38:04Z</time>
      </trkpt>
      <trkpt lat="42.517060" lon="1.057160">
        <ele>2555.51</ele>
        <time>2019-07-16T23:38:24Z</time>
      </trkpt>
      <trkpt lat="42.516940" lon="1.057390">
        <ele>2556.65</ele>
        <time>2019-07-16T23:38:44Z</time>
      </trkpt>
      <trkpt lat="42.516870" lon="1.057500">
        <ele>2557.01</ele>
        <time>2019-07-16T23:39:04Z</time>
      </trkpt>
      <trkpt lat="42.516790" lon="1.057600">
        <ele>2557.41</ele>
        <time>2019-07-16T23:39:24Z</time>
      </trkpt>
      <trkpt lat="42.516720" lon="1.057630">
        <ele>2558.57</ele>
        <time>2019-07-16T23:39:44Z</time>
      </trkpt>
      <trkpt lat="42.516650" lon="1.057690">
        <ele>2560.14</ele>
        <time>2019-07-16T23:40:04Z</time>
      </trkpt>
      <trkpt lat="42.516580" lon="1.057800">
        <ele>2560.79</ele>
        <time>2019-07-16T23:40:24Z</time>
      </trkpt>
      <trkpt lat="42.516480" lon="1.057880">
        <ele>2560.39</ele>
        <time>2019-07-16T23:40:44Z</time>
      </trkpt>
      <trkpt lat="42.516400" lon="1.057980">
        <ele>2562.30</ele>
        <time>2019-07-16T23:41:04Z</time>
      </trkpt>
      <trkpt lat="42.516340" lon="1.058100">
        <ele>2563.57</ele>
        <time>2019-07-16T23:41:24Z</time>
      </trkpt>
      <trkpt lat="42.516260" lon="1.058200">
        <ele>2563.83</ele>
        <time>2019-07-16T23:41:44Z</time>
      </trkpt>
      <trkpt lat="42.516190" lon="1.058310">
        <ele>2565.53</ele>
        <time>2019-07-16T23:42:04Z</time>
      </trkpt>
      <trkpt lat="42.516020" lon="1.058490">
        <ele>2569.77</ele>
        <time>2019-07-16T23:42:24Z</time>
      </trkpt>
      <trkpt lat="42.515970" lon="1.058570">
        <ele>2571.56</ele>
        <time>2019-07-16T23:42:44Z</time>
      </trkpt>
      <trkpt lat="42.515870" lon="1.058800">
        <ele>2575.62</ele>
        <time>2019-07-16T23:43:04Z</time>
      </trkpt>
      <trkpt lat="42.515800" lon="1.058870">
        <ele>2577.51</ele>
        <time>2019-07-16T23:43:24Z</time>
      </trkpt>
      <trkpt lat="42.515680" lon="1.058970">
        <ele>2577.44</ele>
        <time>2019-07-16T23:43:44Z</time>
      </trkpt>
      <trkpt lat="42.515460" lon="1.059140">
        <ele>2579.22</ele>
        <time>2019-07-16T23:44:04Z</time>
      </trkpt>
      <trkpt lat="42.515400" lon="1.059210">
        <ele>2579.31</ele>
        <time>2019-07-16T23:44:24Z</time>
      </trkpt>
      <trkpt lat="42.515300" lon="1.059310">
        <ele>2579.96</ele>
        <time>2019-07-16T23:44:44Z</time>
      </trkpt>
      <trkpt lat="42.515150" lon="1.059450">
        <ele>2579.98</ele>
        <time>2019-07-16T23:45:04Z</time>
      </trkpt>
      <trkpt lat="42.515080" lon="1.059500">
        <ele>2578.67</ele>
        <time>2019-07-16T23:45:24Z</time>
      </trkpt>
      <trkpt lat="42.514990" lon="1.059540">
        <ele>2577.84</ele>
        <time>2019-07-16T23:45:44Z</time>
      </trkpt>
      <trkpt lat="42.514830" lon="1.059640">
        <ele>2576.27</ele>
        <time>2019-07-16T23:46:04Z</time>
      </trkpt>
      <trkpt lat="42.514740" lon="1.059680">
        <ele>2576.49</ele>
        <time>2019-07-16T23:46:24Z</time>
      </trkpt>
      <trkpt lat="42.514650" lon="1.059650">
        <ele>2573.09</ele>
        <time>2019-07-16T23:46:44Z</time>
      </trkpt>
      <trkpt lat="42.514570" lon="1.059610">
        <ele>2568.92</ele>
        <time>2019-07-16T23:47:04Z</time>
      </trkpt>
      <trkpt lat="42.514510" lon="1.059610">
        <ele>2566.41</ele>
        <time>2019-07-16T23:47:24Z</time>
      </trkpt>
      <trkpt lat="42.514490" lon="1.059650">
        <ele>2566.33</ele>
        <time>2019-07-16T23:47:44Z</time>
      </trkpt>
      <trkpt lat="42.514470" lon="1.059660">
        <ele>2565.78</ele>
        <time>2019-07-16T23:48:04Z</time>
      </trkpt>
      <trkpt lat="42.514390" lon="1.059660">
        <ele>2562.34</ele>
        <time>2019-07-16T23:48:24Z</time>
      </trkpt>
      <trkpt lat="42.514221" lon="1.059768">
        <ele>2527.43</ele>
        <time>2018-08-03T14:01:17Z</time>
      </trkpt>
      <trkpt lat="42.513466" lon="1.059270">
        <ele>2514.21</ele>
        <time>2018-08-03T14:01:37Z</time>
      </trkpt>
      <trkpt lat="42.513010" lon="1.058970">
        <ele>2484.41</ele>
        <time>2018-08-03T14:01:57Z</time>
      </trkpt>
      <trkpt lat="42.512990" lon="1.058950">
        <ele>2482.99</ele>
        <time>2018-08-03T14:02:17Z</time>
      </trkpt>
      <trkpt lat="42.512970" lon="1.058930">
        <ele>2481.53</ele>
        <time>2018-08-03T14:02:37Z</time>
      </trkpt>
      <trkpt lat="42.512960" lon="1.058910">
        <ele>2480.55</ele>
        <time>2018-08-03T14:02:57Z</time>
      </trkpt>
      <trkpt lat="42.512930" lon="1.058880">
        <ele>2478.38</ele>
        <time>2018-08-03T14:03:17Z</time>
      </trkpt>
      <trkpt lat="42.512910" lon="1.058870">
        <ele>2477.09</ele>
        <time>2018-08-03T14:03:37Z</time>
      </trkpt>
      <trkpt lat="42.512870" lon="1.058850">
        <ele>2474.67</ele>
        <time>2018-08-03T14:03:57Z</time>
      </trkpt>
      <trkpt lat="42.512840" lon="1.058820">
        <ele>2472.24</ele>
        <time>2018-08-03T14:04:17Z</time>
      </trkpt>
      <trkpt lat="42.512800" lon="1.058800">
        <ele>2469.89</ele>
        <time>2018-08-03T14:04:37Z</time>
      </trkpt>
      <trkpt lat="42.512780" lon="1.058770">
        <ele>2467.84</ele>
        <time>2018-08-03T14:04:57Z</time>
      </trkpt>
      <trkpt lat="42.512740" lon="1.058740">
        <ele>2464.96</ele>
        <time>2018-08-03T14:05:17Z</time>
      </trkpt>
      <trkpt lat="42.512730" lon="1.058720">
        <ele>2463.81</ele>
        <time>2018-08-03T14:05:37Z</time>
      </trkpt>
      <trkpt lat="42.512700" lon="1.058700">
        <ele>2461.81</ele>
        <time>2018-08-03T14:05:57Z</time>
      </trkpt>
      <trkpt lat="42.512680" lon="1.058690">
        <ele>2460.55</ele>
        <time>2018-08-03T14:06:17Z</time>
      </trkpt>
      <trkpt lat="42.512640" lon="1.058680">
        <ele>2458.45</ele>
        <time>2018-08-03T14:06:37Z</time>
      </trkpt>
      <trkpt lat="42.512620" lon="1.058650">
        <ele>2456.59</ele>
        <time>2018-08-03T14:06:57Z</time>
      </trkpt>
      <trkpt lat="42.512590" lon="1.058620">
        <ele>2454.25</ele>
        <time>2018-08-03T14:07:17Z</time>
      </trkpt>
      <trkpt lat="42.512570" lon="1.058610">
        <ele>2453.02</ele>
        <time>2018-08-03T14:07:37Z</time>
      </trkpt>
      <trkpt lat="42.512530" lon="1.058590">
        <ele>2450.70</ele>
        <time>2018-08-03T14:07:57Z</time>
      </trkpt>
      <trkpt lat="42.512500" lon="1.058570">
        <ele>2448.73</ele>
        <time>2018-08-03T14:08:17Z</time>
      </trkpt>
      <trkpt lat="42.512460" lon="1.058550">
        <ele>2446.39</ele>
        <time>2018-08-03T14:08:37Z</time>
      </trkpt>
      <trkpt lat="42.512420" lon="1.058530">
        <ele>2443.94</ele>
        <time>2018-08-03T14:08:57Z</time>
      </trkpt>
      <trkpt lat="42.512380" lon="1.058540">
        <ele>2442.59</ele>
        <time>2018-08-03T14:09:17Z</time>
      </trkpt>
      <trkpt lat="42.512370" lon="1.058540">
        <ele>2442.11</ele>
        <time>2018-08-03T14:09:37Z</time>
      </trkpt>
      <trkpt lat="42.512340" lon="1.058520">
        <ele>2440.12</ele>
        <time>2018-08-03T14:09:57Z</time>
      </trkpt>
      <trkpt lat="42.512320" lon="1.058510">
        <ele>2438.90</ele>
        <time>2018-08-03T14:10:17Z</time>
      </trkpt>
      <trkpt lat="42.512320" lon="1.058480">
        <ele>2438.04</ele>
        <time>2018-08-03T14:10:37Z</time>
      </trkpt>
      <trkpt lat="42.512300" lon="1.058470">
        <ele>2436.89</ele>
        <time>2018-08-03T14:10:57Z</time>
      </trkpt>
      <trkpt lat="42.512280" lon="1.058460">
        <ele>2435.64</ele>
        <time>2018-08-03T14:11:17Z</time>
      </trkpt>
      <trkpt lat="42.512250" lon="1.058420">
        <ele>2433.06</ele>
        <time>2018-08-03T14:11:37Z</time>
      </trkpt>
      <trkpt lat="42.512230" lon="1.058410">
        <ele>2431.84</ele>
        <time>2018-08-03T14:11:57Z</time>
      </trkpt>
      <trkpt lat="42.512210" lon="1.058410">
        <ele>2430.92</ele>
        <time>2018-08-03T14:12:17Z</time>
      </trkpt>
      <trkpt lat="42.512190" lon="1.058400">
        <ele>2429.71</ele>
        <time>2018-08-03T14:12:37Z</time>
      </trkpt>
      <trkpt lat="42.512160" lon="1.058380">
        <ele>2427.90</ele>
        <time>2018-08-03T14:12:57Z</time>
      </trkpt>
      <trkpt lat="42.512120" lon="1.058360">
        <ele>2425.48</ele>
        <time>2018-08-03T14:13:17Z</time>
      </trkpt>
      <trkpt lat="42.512080" lon="1.058360">
        <ele>2423.71</ele>
        <time>2018-08-03T14:13:37Z</time>
      </trkpt>
      <trkpt lat="42.512080" lon="1.058340">
        <ele>2423.11</ele>
        <time>2018-08-03T14:13:57Z</time>
      </trkpt>
      <trkpt lat="42.512060" lon="1.058320">
        <ele>2421.50</ele>
        <time>2018-08-03T14:14:17Z</time>
      </trkpt>
      <trkpt lat="42.512050" lon="1.058310">
        <ele>2420.82</ele>
        <time>2018-08-03T14:14:37Z</time>
      </trkpt>
      <trkpt lat="42.512030" lon="1.058320">
        <ele>2420.29</ele>
        <time>2018-08-03T14:14:57Z</time>
      </trkpt>
      <trkpt lat="42.512020" lon="1.058300">
        <ele>2419.28</ele>
        <time>2018-08-03T14:15:17Z</time>
      </trkpt>
      <trkpt lat="42.512000" lon="1.058250">
        <ele>2416.61</ele>
        <time>2018-08-03T14:15:37Z</time>
      </trkpt>
      <trkpt lat="42.511960" lon="1.058230">
        <ele>2414.32</ele>
        <time>2018-08-03T14:15:57Z</time>
      </trkpt>
      <trkpt lat="42.511930" lon="1.058200">
        <ele>2412.06</ele>
        <time>2018-08-03T14:16:17Z</time>
      </trkpt>
      <trkpt lat="42.511900" lon="1.058180">
        <ele>2410.08</ele>
        <time>2018-08-03T14:16:37Z</time>
      </trkpt>
      <trkpt lat="42.511880" lon="1.058140">
        <ele>2407.71</ele>
        <time>2018-08-03T14:16:57Z</time>
      </trkpt>
      <trkpt lat="42.511870" lon="1.058120">
        <ele>2406.68</ele>
        <time>2018-08-03T14:17:17Z</time>
      </trkpt>
      <trkpt lat="42.511850" lon="1.058120">
        <ele>2405.71</ele>
        <time>2018-08-03T14:17:37Z</time>
      </trkpt>
      <trkpt lat="42.511840" lon="1.058090">
        <ele>2404.21</ele>
        <time>2018-08-03T14:17:57Z</time>
      </trkpt>
      <trkpt lat="42.511800" lon="1.058060">
        <ele>2401.49</ele>
        <time>2018-08-03T14:18:17Z</time>
      </trkpt>
      <trkpt lat="42.511790" lon="1.058060">
        <ele>2400.93</ele>
        <time>2018-08-03T14:18:37Z</time>
      </trkpt>
      <trkpt lat="42.511770" lon="1.058050">
        <ele>2399.72</ele>
        <time>2018-08-03T14:18:57Z</time>
      </trkpt>
      <trkpt lat="42.511730" lon="1.058030">
        <ele>2397.27</ele>
        <time>2018-08-03T14:19:17Z</time>
      </trkpt>
      <trkpt lat="42.511720" lon="1.058010">
        <ele>2396.14</ele>
        <time>2018-08-03T14:19:37Z</time>
      </trkpt>
      <trkpt lat="42.511700" lon="1.058000">
        <ele>2394.96</ele>
        <time>2018-08-03T14:19:57Z</time>
      </trkpt>
      <trkpt lat="42.511680" lon="1.058000">
        <ele>2394.03</ele>
        <time>2018-08-03T14:20:17Z</time>
      </trkpt>
      <trkpt lat="42.511650" lon="1.057970">
        <ele>2391.98</ele>
        <time>2018-08-03T14:20:37Z</time>
      </trkpt>
      <trkpt lat="42.511630" lon="1.057970">
        <ele>2391.24</ele>
        <time>2018-08-03T14:20:57Z</time>
      </trkpt>
      <trkpt lat="42.511590" lon="1.057960">
        <ele>2389.43</ele>
        <time>2018-08-03T14:21:17Z</time>
      </trkpt>
      <trkpt lat="42.511580" lon="1.057950">
        <ele>2388.71</ele>
        <time>2018-08-03T14:21:37Z</time>
      </trkpt>
      <trkpt lat="42.511540" lon="1.057940">
        <ele>2386.92</ele>
        <time>2018-08-03T14:21:57Z</time>
      </trkpt>
      <trkpt lat="42.511510" lon="1.057940">
        <ele>2385.87</ele>
        <time>2018-08-03T14:22:17Z</time>
      </trkpt>
      <trkpt lat="42.511500" lon="1.057920">
        <ele>2384.84</ele>
        <time>2018-08-03T14:22:37Z</time>
      </trkpt>
      <trkpt lat="42.511500" lon="1.057880">
        <ele>2383.68</ele>
        <time>2018-08-03T14:22:57Z</time>
      </trkpt>
      <trkpt lat="42.511480" lon="1.057890">
        <ele>2383.13</ele>
        <time>2018-08-03T14:23:17Z</time>
      </trkpt>
      <trkpt lat="42.511470" lon="1.057870">
        <ele>2382.18</ele>
        <time>2018-08-03T14:23:37Z</time>
      </trkpt>
      <trkpt lat="42.511440" lon="1.057840">
        <ele>2380.08</ele>
        <time>2018-08-03T14:23:57Z</time>
      </trkpt>
      <trkpt lat="42.511420" lon="1.057800">
        <ele>2377.93</ele>
        <time>2018-08-03T14:24:17Z</time>
      </trkpt>
      <trkpt lat="42.511400" lon="1.057800">
        <ele>2377.26</ele>
        <time>2018-08-03T14:24:37Z</time>
      </trkpt>
      <trkpt lat="42.511400" lon="1.057770">
        <ele>2376.28</ele>
        <time>2018-08-03T14:24:57Z</time>
      </trkpt>
      <trkpt lat="42.511380" lon="1.057770">
        <ele>2375.48</ele>
        <time>2018-08-03T14:25:17Z</time>
      </trkpt>
      <trkpt lat="42.511360" lon="1.057750">
        <ele>2374.11</ele>
        <time>2018-08-03T14:25:37Z</time>
      </trkpt>
      <trkpt lat="42.511350" lon="1.057730">
        <ele>2373.12</ele>
        <time>2018-08-03T14:25:57Z</time>
      </trkpt>
      <trkpt lat="42.511330" lon="1.057690">
        <ele>2371.01</ele>
        <time>2018-08-03T14:26:17Z</time>
      </trkpt>
      <trkpt lat="42.511320" lon="1.057670">
        <ele>2370.05</ele>
        <time>2018-08-03T14:26:37Z</time>
      </trkpt>
      <trkpt lat="42.511290" lon="1.057670">
        <ele>2368.96</ele>
        <time>2018-08-03T14:26:57Z</time>
      </trkpt>
      <trkpt lat="42.511270" lon="1.057660">
        <ele>2367.92</ele>
        <time>2018-08-03T14:27:17Z</time>
      </trkpt>
      <trkpt lat="42.511250" lon="1.057640">
        <ele>2366.56</ele>
        <time>2018-08-03T14:27:37Z</time>
      </trkpt>
      <trkpt lat="42.511230" lon="1.057620">
        <ele>2365.28</ele>
        <time>2018-08-03T14:27:57Z</time>
      </trkpt>
      <trkpt lat="42.511220" lon="1.057600">
        <ele>2364.29</ele>
        <time>2018-08-03T14:28:17Z</time>
      </trkpt>
      <trkpt lat="42.511200" lon="1.057590">
        <ele>2363.12</ele>
        <time>2018-08-03T14:28:37Z</time>
      </trkpt>
      <trkpt lat="42.511190" lon="1.057580">
        <ele>2362.50</ele>
        <time>2018-08-03T14:28:57Z</time>
      </trkpt>
      <trkpt lat="42.511160" lon="1.057540">
        <ele>2360.14</ele>
        <time>2018-08-03T14:29:17Z</time>
      </trkpt>
      <trkpt lat="42.511140" lon="1.057520">
        <ele>2358.71</ele>
        <time>2018-08-03T14:29:37Z</time>
      </trkpt>
      <trkpt lat="42.511120" lon="1.057480">
        <ele>2356.71</ele>
        <time>2018-08-03T14:29:57Z</time>
      </trkpt>
      <trkpt lat="42.511100" lon="1.057460">
        <ele>2355.36</ele>
        <time>2018-08-03T14:30:17Z</time>
      </trkpt>
      <trkpt lat="42.511070" lon="1.057430">
        <ele>2353.42</ele>
        <time>2018-08-03T14:30:37Z</time>
      </trkpt>
      <trkpt lat="42.511040" lon="1.057390">
        <ele>2351.21</ele>
        <time>2018-08-03T14:30:57Z</time>
      </trkpt>
      <trkpt lat="42.511020" lon="1.057350">
        <ele>2349.47</ele>
        <time>2018-08-03T14:31:17Z</time>
      </trkpt>
      <trkpt lat="42.510990" lon="1.057330">
        <ele>2347.82</ele>
        <time>2018-08-03T14:31:37Z</time>
      </trkpt>
      <trkpt lat="42.510980" lon="1.057300">
        <ele>2346.65</ele>
        <time>2018-08-03T14:31:57Z</time>
      </trkpt>
      <trkpt lat="42.510960" lon="1.057290">
        <ele>2345.79</ele>
        <time>2018-08-03T14:32:17Z</time>
      </trkpt>
      <trkpt lat="42.510930" lon="1.057260">
        <ele>2343.97</ele>
        <time>2018-08-03T14:32:37Z</time>
      </trkpt>
      <trkpt lat="42.510910" lon="1.057250">
        <ele>2343.02</ele>
        <time>2018-08-03T14:32:57Z</time>
      </trkpt>
      <trkpt lat="42.510880" lon="1.057220">
        <ele>2341.36</ele>
        <time>2018-08-03T14:33:17Z</time>
      </trkpt>
      <trkpt lat="42.510860" lon="1.057210">
        <ele>2340.41</ele>
        <time>2018-08-03T14:33:37Z</time>
      </trkpt>
      <trkpt lat="42.510830" lon="1.057180">
        <ele>2338.52</ele>
        <time>2018-08-03T14:33:57Z</time>
      </trkpt>
      <trkpt lat="42.510800" lon="1.057150">
        <ele>2336.67</ele>
        <time>2018-08-03T14:34:17Z</time>
      </trkpt>
      <trkpt lat="42.510790" lon="1.057130">
        <ele>2335.79</ele>
        <time>2018-08-03T14:34:37Z</time>
      </trkpt>
      <trkpt lat="42.510770" lon="1.057110">
        <ele>2334.42</ele>
        <time>2018-08-03T14:34:57Z</time>
      </trkpt>
      <trkpt lat="42.510770" lon="1.057080">
        <ele>2333.55</ele>
        <time>2018-08-03T14:35:17Z</time>
      </trkpt>
      <trkpt lat="42.510750" lon="1.057070">
        <ele>2332.54</ele>
        <time>2018-08-03T14:35:37Z</time>
      </trkpt>
      <trkpt lat="42.510740" lon="1.057040">
        <ele>2331.32</ele>
        <time>2018-08-03T14:35:57Z</time>
      </trkpt>
      <trkpt lat="42.510730" lon="1.057000">
        <ele>2329.86</ele>
        <time>2018-08-03T14:36:17Z</time>
      </trkpt>
      <trkpt lat="42.510710" lon="1.056970">
        <ele>2328.23</ele>
        <time>2018-08-03T14:36:37Z</time>
      </trkpt>
      <trkpt lat="42.510680" lon="1.056940">
        <ele>2326.47</ele>
        <time>2018-08-03T14:36:57Z</time>
      </trkpt>
      <trkpt lat="42.510650" lon="1.056910">
        <ele>2324.64</ele>
        <time>2018-08-03T14:37:17Z</time>
      </trkpt>
      <trkpt lat="42.510630" lon="1.056900">
        <ele>2323.81</ele>
        <time>2018-08-03T14:37:37Z</time>
      </trkpt>
      <trkpt lat="42.510600" lon="1.056880">
        <ele>2322.32</ele>
        <time>2018-08-03T14:37:57Z</time>
      </trkpt>
      <trkpt lat="42.510560" lon="1.056860">
        <ele>2320.76</ele>
        <time>2018-08-03T14:38:17Z</time>
      </trkpt>
      <trkpt lat="42.510560" lon="1.056830">
        <ele>2319.89</ele>
        <time>2018-08-03T14:38:37Z</time>
      </trkpt>
      <trkpt lat="42.510540" lon="1.056820">
        <ele>2319.07</ele>
        <time>2018-08-03T14:38:57Z</time>
      </trkpt>
      <trkpt lat="42.510520" lon="1.056800">
        <ele>2317.94</ele>
        <time>2018-08-03T14:39:17Z</time>
      </trkpt>
      <trkpt lat="42.510490" lon="1.056770">
        <ele>2316.22</ele>
        <time>2018-08-03T14:39:37Z</time>
      </trkpt>
      <trkpt lat="42.510480" lon="1.056750">
        <ele>2315.42</ele>
        <time>2018-08-03T14:39:57Z</time>
      </trkpt>
      <trkpt lat="42.510460" lon="1.056740">
        <ele>2314.69</ele>
        <time>2018-08-03T14:40:17Z</time>
      </trkpt>
      <trkpt lat="42.510440" lon="1.056730">
        <ele>2313.84</ele>
        <time>2018-08-03T14:40:37Z</time>
      </trkpt>
      <trkpt lat="42.510410" lon="1.056700">
        <ele>2312.27</ele>
        <time>2018-08-03T14:40:57Z</time>
      </trkpt>
      <trkpt lat="42.510410" lon="1.056670">
        <ele>2311.44</ele>
        <time>2018-08-03T14:41:17Z</time>
      </trkpt>
      <trkpt lat="42.510390" lon="1.056640">
        <ele>2310.01</ele>
        <time>2018-08-03T14:41:37Z</time>
      </trkpt>
      <trkpt lat="42.510380" lon="1.056610">
        <ele>2308.91</ele>
        <time>2018-08-03T14:41:57Z</time>
      </trkpt>
      <trkpt lat="42.510360" lon="1.056570">
        <ele>2307.25</ele>
        <time>2018-08-03T14:42:17Z</time>
      </trkpt>
      <trkpt lat="42.510340" lon="1.056550">
        <ele>2306.15</ele>
        <time>2018-08-03T14:42:37Z</time>
      </trkpt>
      <trkpt lat="42.510330" lon="1.056530">
        <ele>2305.38</ele>
        <time>2018-08-03T14:42:57Z</time>
      </trkpt>
      <trkpt lat="42.510300" lon="1.056500">
        <ele>2303.74</ele>
        <time>2018-08-03T14:43:17Z</time>
      </trkpt>
      <trkpt lat="42.510280" lon="1.056490">
        <ele>2303.09</ele>
        <time>2018-08-03T14:43:37Z</time>
      </trkpt>
      <trkpt lat="42.510250" lon="1.056450">
        <ele>2301.13</ele>
        <time>2018-08-03T14:43:57Z</time>
      </trkpt>
      <trkpt lat="42.510240" lon="1.056430">
        <ele>2300.21</ele>
        <time>2018-08-03T14:44:17Z</time>
      </trkpt>
      <trkpt lat="42.510220" lon="1.056410">
        <ele>2299.27</ele>
        <time>2018-08-03T14:44:37Z</time>
      </trkpt>
      <trkpt lat="42.510210" lon="1.056360">
        <ele>2297.49</ele>
        <time>2018-08-03T14:44:57Z</time>
      </trkpt>
      <trkpt lat="42.510190" lon="1.056300">
        <ele>2295.13</ele>
        <time>2018-08-03T14:45:17Z</time>
      </trkpt>
      <trkpt lat="42.510180" lon="1.056280">
        <ele>2294.31</ele>
        <time>2018-08-03T14:45:37Z</time>
      </trkpt>
      <trkpt lat="42.510170" lon="1.056260">
        <ele>2293.51</ele>
        <time>2018-08-03T14:45:57Z</time>
      </trkpt>
      <trkpt lat="42.510150" lon="1.056210">
        <ele>2291.68</ele>
        <time>2018-08-03T14:46:17Z</time>
      </trkpt>
      <trkpt lat="42.510140" lon="1.056170">
        <ele>2290.26</ele>
        <time>2018-08-03T14:46:37Z</time>
      </trkpt>
      <trkpt lat="42.510130" lon="1.056140">
        <ele>2289.28</ele>
        <time>2018-08-03T14:46:57Z</time>
      </trkpt>
      <trkpt lat="42.510120" lon="1.056120">
        <ele>2288.43</ele>
        <time>2018-08-03T14:47:17Z</time>
      </trkpt>
      <trkpt lat="42.510120" lon="1.056070">
        <ele>2286.78</ele>
        <time>2018-08-03T14:47:37Z</time>
      </trkpt>
      <trkpt lat="42.510110" lon="1.056030">
        <ele>2285.15</ele>
        <time>2018-08-03T14:47:57Z</time>
      </trkpt>
      <trkpt lat="42.510080" lon="1.055990">
        <ele>2283.16</ele>
        <time>2018-08-03T14:48:17Z</time>
      </trkpt>
      <trkpt lat="42.510060" lon="1.055980">
        <ele>2282.48</ele>
        <time>2018-08-03T14:48:37Z</time>
      </trkpt>
      <trkpt lat="42.510060" lon="1.055950">
        <ele>2281.33</ele>
        <time>2018-08-03T14:48:57Z</time>
      </trkpt>
      <trkpt lat="42.510050" lon="1.055920">
        <ele>2280.07</ele>
        <time>2018-08-03T14:49:17Z</time>
      </trkpt>
      <trkpt lat="42.510060" lon="1.055900">
        <ele>2279.51</ele>
        <time>2018-08-03T14:49:37Z</time>
      </trkpt>
      <trkpt lat="42.510050" lon="1.055870">
        <ele>2278.22</ele>
        <time>2018-08-03T14:49:57Z</time>
      </trkpt>
      <trkpt lat="42.510030" lon="1.055860">
        <ele>2277.52</ele>
        <time>2018-08-03T14:50:17Z</time>
      </trkpt>
      <trkpt lat="42.510020" lon="1.055830">
        <ele>2276.33</ele>
        <time>2018-08-03T14:50:37Z</time>
      </trkpt>
      <trkpt lat="42.510000" lon="1.055820">
        <ele>2275.63</ele>
        <time>2018-08-03T14:50:57Z</time>
      </trkpt>
      <trkpt lat="42.509980" lon="1.055820">
        <ele>2275.15</ele>
        <time>2018-08-03T14:51:17Z</time>
      </trkpt>
      <trkpt lat="42.509980" lon="1.055790">
        <ele>2274.13</ele>
        <time>2018-08-03T14:51:37Z</time>
      </trkpt>
      <trkpt lat="42.509950" lon="1.055760">
        <ele>2272.37</ele>
        <time>2018-08-03T14:51:57Z</time>
      </trkpt>
      <trkpt lat="42.509960" lon="1.055740">
        <ele>2271.93</ele>
        <time>2018-08-03T14:52:17Z</time>
      </trkpt>
      <trkpt lat="42.509970" lon="1.055720">
        <ele>2271.56</ele>
        <time>2018-08-03T14:52:37Z</time>
      </trkpt>
      <trkpt lat="42.509980" lon="1.055660">
        <ele>2269.88</ele>
        <time>2018-08-03T14:52:57Z</time>
      </trkpt>
      <trkpt lat="42.509990" lon="1.055610">
        <ele>2268.59</ele>
        <time>2018-08-03T14:53:17Z</time>
      </trkpt>
      <trkpt lat="42.509990" lon="1.055560">
        <ele>2266.81</ele>
        <time>2018-08-03T14:53:37Z</time>
      </trkpt>
      <trkpt lat="42.509980" lon="1.055550">
        <ele>2266.22</ele>
        <time>2018-08-03T14:53:57Z</time>
      </trkpt>
      <trkpt lat="42.509970" lon="1.055520">
        <ele>2264.90</ele>
        <time>2018-08-03T14:54:17Z</time>
      </trkpt>
      <trkpt lat="42.509980" lon="1.055490">
        <ele>2264.02</ele>
        <time>2018-08-03T14:54:37Z</time>
      </trkpt>
      <trkpt lat="42.509960" lon="1.055450">
        <ele>2262.05</ele>
        <time>2018-08-03T14:54:57Z</time>
      </trkpt>
      <trkpt lat="42.509960" lon="1.055400">
        <ele>2260.29</ele>
        <time>2018-08-03T14:55:17Z</time>
      </trkpt>
      <trkpt lat="42.509940" lon="1.055380">
        <ele>2258.98</ele>
        <time>2018-08-03T14:55:37Z</time>
      </trkpt>
      <trkpt lat="42.509930" lon="1.055350">
        <ele>2257.53</ele>
        <time>2018-08-03T14:55:57Z</time>
      </trkpt>
      <trkpt lat="42.509920" lon="1.055320">
        <ele>2256.28</ele>
        <time>2018-08-03T14:56:17Z</time>
      </trkpt>
      <trkpt lat="42.509900" lon="1.055310">
        <ele>2255.27</ele>
        <time>2018-08-03T14:56:37Z</time>
      </trkpt>
      <trkpt lat="42.509900" lon="1.055290">
        <ele>2254.55</ele>
        <time>2018-08-03T14:56:57Z</time>
      </trkpt>
      <trkpt lat="42.509880" lon="1.055280">
        <ele>2253.68</ele>
        <time>2018-08-03T14:57:17Z</time>
      </trkpt>
      <trkpt lat="42.509870" lon="1.055260">
        <ele>2252.61</ele>
        <time>2018-08-03T14:57:37Z</time>
      </trkpt>
      <trkpt lat="42.509860" lon="1.055200">
        <ele>2250.22</ele>
        <time>2018-08-03T14:57:57Z</time>
      </trkpt>
      <trkpt lat="42.509860" lon="1.055180">
        <ele>2249.49</ele>
        <time>2018-08-03T14:58:17Z</time>
      </trkpt>
      <trkpt lat="42.509850" lon="1.055160">
        <ele>2248.42</ele>
        <time>2018-08-03T14:58:37Z</time>
      </trkpt>
      <trkpt lat="42.509830" lon="1.055150">
        <ele>2247.55</ele>
        <time>2018-08-03T14:58:57Z</time>
      </trkpt>
      <trkpt lat="42.509820" lon="1.055130">
        <ele>2246.56</ele>
        <time>2018-08-03T14:59:17Z</time>
      </trkpt>
      <trkpt lat="42.509800" lon="1.055120">
        <ele>2245.66</ele>
        <time>2018-08-03T14:59:37Z</time>
      </trkpt>
      <trkpt lat="42.509810" lon="1.055100">
        <ele>2245.14</ele>
        <time>2018-08-03T14:59:57Z</time>
      </trkpt>
      <trkpt lat="42.509830" lon="1.055040">
        <ele>2243.60</ele>
        <time>2018-08-03T15:00:17Z</time>
      </trkpt>
      <trkpt lat="42.509830" lon="1.055020">
        <ele>2242.85</ele>
        <time>2018-08-03T15:00:37Z</time>
      </trkpt>
      <trkpt lat="42.509850" lon="1.054970">
        <ele>2241.65</ele>
        <time>2018-08-03T15:00:57Z</time>
      </trkpt>
      <trkpt lat="42.509840" lon="1.054920">
        <ele>2239.43</ele>
        <time>2018-08-03T15:01:17Z</time>
      </trkpt>
      <trkpt lat="42.509840" lon="1.054860">
        <ele>2237.11</ele>
        <time>2018-08-03T15:01:37Z</time>
      </trkpt>
      <trkpt lat="42.509830" lon="1.054810">
        <ele>2235.01</ele>
        <time>2018-08-03T15:01:57Z</time>
      </trkpt>
      <trkpt lat="42.509830" lon="1.054760">
        <ele>2233.12</ele>
        <time>2018-08-03T15:02:17Z</time>
      </trkpt>
      <trkpt lat="42.509840" lon="1.054700">
        <ele>2231.33</ele>
        <time>2018-08-03T15:02:37Z</time>
      </trkpt>
      <trkpt lat="42.509840" lon="1.054650">
        <ele>2229.77</ele>
        <time>2018-08-03T15:02:57Z</time>
      </trkpt>
      <trkpt lat="42.509850" lon="1.054590">
        <ele>2228.02</ele>
        <time>2018-08-03T15:03:17Z</time>
      </trkpt>
      <trkpt lat="42.509820" lon="1.054550">
        <ele>2226.15</ele>
        <time>2018-08-03T15:03:37Z</time>
      </trkpt>
      <trkpt lat="42.509810" lon="1.054530">
        <ele>2225.25</ele>
        <time>2018-08-03T15:03:57Z</time>
      </trkpt>
      <trkpt lat="42.509820" lon="1.054500">
        <ele>2224.55</ele>
        <time>2018-08-03T15:04:17Z</time>
      </trkpt>
      <trkpt lat="42.509830" lon="1.054480">
        <ele>2224.17</ele>
        <time>2018-08-03T15:04:37Z</time>
      </trkpt>
      <trkpt lat="42.509850" lon="1.054430">
        <ele>2222.87</ele>
        <time>2018-08-03T15:04:57Z</time>
      </trkpt>
      <trkpt lat="42.509860" lon="1.054390">
        <ele>2221.59</ele>
        <time>2018-08-03T15:05:17Z</time>
      </trkpt>
      <trkpt lat="42.509890" lon="1.054340">
        <ele>2220.21</ele>
        <time>2018-08-03T15:05:37Z</time>
      </trkpt>
      <trkpt lat="42.509930" lon="1.054320">
        <ele>2220.01</ele>
        <time>2018-08-03T15:05:57Z</time>
      </trkpt>
      <trkpt lat="42.509940" lon="1.054290">
        <ele>2219.09</ele>
        <time>2018-08-03T15:06:17Z</time>
      </trkpt>
      <trkpt lat="42.509930" lon="1.054270">
        <ele>2218.13</ele>
        <time>2018-08-03T15:06:37Z</time>
      </trkpt>
      <trkpt lat="42.509930" lon="1.054240">
        <ele>2217.06</ele>
        <time>2018-08-03T15:06:57Z</time>
      </trkpt>
      <trkpt lat="42.509910" lon="1.054190">
        <ele>2214.94</ele>
        <time>2018-08-03T15:07:17Z</time>
      </trkpt>
      <trkpt lat="42.509880" lon="1.054150">
        <ele>2213.22</ele>
        <time>2018-08-03T15:07:37Z</time>
      </trkpt>
      <trkpt lat="42.509850" lon="1.054120">
        <ele>2212.07</ele>
        <time>2018-08-03T15:07:57Z</time>
      </trkpt>
      <trkpt lat="42.509830" lon="1.054080">
        <ele>2210.77</ele>
        <time>2018-08-03T15:08:17Z</time>
      </trkpt>
      <trkpt lat="42.509810" lon="1.054070">
        <ele>2210.39</ele>
        <time>2018-08-03T15:08:37Z</time>
      </trkpt>
      <trkpt lat="42.509780" lon="1.054040">
        <ele>2209.24</ele>
        <time>2018-08-03T15:08:57Z</time>
      </trkpt>
      <trkpt lat="42.509760" lon="1.054020">
        <ele>2208.64</ele>
        <time>2018-08-03T15:09:17Z</time>
      </trkpt>
      <trkpt lat="42.509770" lon="1.053990">
        <ele>2207.81</ele>
        <time>2018-08-03T15:09:37Z</time>
      </trkpt>
      <trkpt lat="42.509750" lon="1.053970">
        <ele>2207.22</ele>
        <time>2018-08-03T15:09:57Z</time>
      </trkpt>
      <trkpt lat="42.509730" lon="1.053930">
        <ele>2206.10</ele>
        <time>2018-08-03T15:10:17Z</time>
      </trkpt>
      <trkpt lat="42.509730" lon="1.053880">
        <ele>2204.96</ele>
        <time>2018-08-03T15:10:37Z</time>
      </trkpt>
      <trkpt lat="42.509720" lon="1.053860">
        <ele>2204.44</ele>
        <time>2018-08-03T15:10:57Z</time>
      </trkpt>
      <trkpt lat="42.509710" lon="1.053840">
        <ele>2203.78</ele>
        <time>2018-08-03T15:11:17Z</time>
      </trkpt>
      <trkpt lat="42.509690" lon="1.053790">
        <ele>2202.27</ele>
        <time>2018-08-03T15:11:37Z</time>
      </trkpt>
      <trkpt lat="42.509690" lon="1.053770">
        <ele>2201.93</ele>
        <time>2018-08-03T15:11:57Z</time>
      </trkpt>
      <trkpt lat="42.509680" lon="1.053720">
        <ele>2200.90</ele>
        <time>2018-08-03T15:12:17Z</time>
      </trkpt>
      <trkpt lat="42.509660" lon="1.053680">
        <ele>2199.78</ele>
        <time>2018-08-03T15:12:37Z</time>
      </trkpt>
      <trkpt lat="42.509640" lon="1.053680">
        <ele>2199.28</ele>
        <time>2018-08-03T15:12:57Z</time>
      </trkpt>
      <trkpt lat="42.509620" lon="1.053680">
        <ele>2198.72</ele>
        <time>2018-08-03T15:13:17Z</time>
      </trkpt>
      <trkpt lat="42.509580" lon="1.053700">
        <ele>2197.91</ele>
        <time>2018-08-03T15:13:37Z</time>
      </trkpt>
      <trkpt lat="42.509560" lon="1.053750">
        <ele>2197.81</ele>
        <time>2018-08-03T15:13:57Z</time>
      </trkpt>
      <trkpt lat="42.509550" lon="1.053810">
        <ele>2198.19</ele>
        <time>2018-08-03T15:14:17Z</time>
      </trkpt>
      <trkpt lat="42.509530" lon="1.053830">
        <ele>2197.63</ele>
        <time>2018-08-03T15:14:37Z</time>
      </trkpt>
      <trkpt lat="42.509500" lon="1.053860">
        <ele>2196.89</ele>
        <time>2018-08-03T15:14:57Z</time>
      </trkpt>
      <trkpt lat="42.509460" lon="1.053870">
        <ele>2195.59</ele>
        <time>2018-08-03T15:15:17Z</time>
      </trkpt>
      <trkpt lat="42.509420" lon="1.053860">
        <ele>2194.30</ele>
        <time>2018-08-03T15:15:37Z</time>
      </trkpt>
      <trkpt lat="42.509390" lon="1.053820">
        <ele>2193.09</ele>
        <time>2018-08-03T15:15:57Z</time>
      </trkpt>
      <trkpt lat="42.509360" lon="1.053780">
        <ele>2191.89</ele>
        <time>2018-08-03T15:16:17Z</time>
      </trkpt>
      <trkpt lat="42.509360" lon="1.053720">
        <ele>2191.47</ele>
        <time>2018-08-03T15:16:37Z</time>
      </trkpt>
      <trkpt lat="42.509330" lon="1.053670">
        <ele>2189.98</ele>
        <time>2018-08-03T15:16:57Z</time>
      </trkpt>
      <trkpt lat="42.509310" lon="1.053650">
        <ele>2189.03</ele>
        <time>2018-08-03T15:17:17Z</time>
      </trkpt>
      <trkpt lat="42.509270" lon="1.053650">
        <ele>2187.51</ele>
        <time>2018-08-03T15:17:37Z</time>
      </trkpt>
      <trkpt lat="42.509230" lon="1.053620">
        <ele>2185.62</ele>
        <time>2018-08-03T15:17:57Z</time>
      </trkpt>
      <trkpt lat="42.509220" lon="1.053600">
        <ele>2185.18</ele>
        <time>2018-08-03T15:18:17Z</time>
      </trkpt>
      <trkpt lat="42.509200" lon="1.053550">
        <ele>2184.17</ele>
        <time>2018-08-03T15:18:37Z</time>
      </trkpt>
      <trkpt lat="42.509180" lon="1.053550">
        <ele>2183.39</ele>
        <time>2018-08-03T15:18:57Z</time>
      </trkpt>
      <trkpt lat="42.509160" lon="1.053530">
        <ele>2182.44</ele>
        <time>2018-08-03T15:19:17Z</time>
      </trkpt>
      <trkpt lat="42.509140" lon="1.053510">
        <ele>2181.68</ele>
        <time>2018-08-03T15:19:37Z</time>
      </trkpt>
      <trkpt lat="42.509100" lon="1.053490">
        <ele>2179.89</ele>
        <time>2018-08-03T15:19:57Z</time>
      </trkpt>
      <trkpt lat="42.509060" lon="1.053480">
        <ele>2178.12</ele>
        <time>2018-08-03T15:20:17Z</time>
      </trkpt>
      <trkpt lat="42.509030" lon="1.053480">
        <ele>2176.98</ele>
        <time>2018-08-03T15:20:37Z</time>
      </trkpt>
      <trkpt lat="42.509010" lon="1.053470">
        <ele>2176.09</ele>
        <time>2018-08-03T15:20:57Z</time>
      </trkpt>
      <trkpt lat="42.509000" lon="1.053470">
        <ele>2175.70</ele>
        <time>2018-08-03T15:21:17Z</time>
      </trkpt>
      <trkpt lat="42.508960" lon="1.053450">
        <ele>2173.71</ele>
        <time>2018-08-03T15:21:37Z</time>
      </trkpt>
      <trkpt lat="42.508920" lon="1.053430">
        <ele>2171.72</ele>
        <time>2018-08-03T15:21:57Z</time>
      </trkpt>
      <trkpt lat="42.508910" lon="1.053420">
        <ele>2171.20</ele>
        <time>2018-08-03T15:22:17Z</time>
      </trkpt>
      <trkpt lat="42.508870" lon="1.053390">
        <ele>2169.46</ele>
        <time>2018-08-03T15:22:37Z</time>
      </trkpt>
      <trkpt lat="42.508850" lon="1.053390">
        <ele>2169.03</ele>
        <time>2018-08-03T15:22:57Z</time>
      </trkpt>
      <trkpt lat="42.508840" lon="1.053370">
        <ele>2168.55</ele>
        <time>2018-08-03T15:23:17Z</time>
      </trkpt>
      <trkpt lat="42.508820" lon="1.053360">
        <ele>2167.91</ele>
        <time>2018-08-03T15:23:37Z</time>
      </trkpt>
      <trkpt lat="42.508810" lon="1.053360">
        <ele>2167.78</ele>
        <time>2018-08-03T15:23:57Z</time>
      </trkpt>
      <trkpt lat="42.508770" lon="1.053350">
        <ele>2166.74</ele>
        <time>2018-08-03T15:24:17Z</time>
      </trkpt>
      <trkpt lat="42.508730" lon="1.053330">
        <ele>2165.65</ele>
        <time>2018-08-03T15:24:37Z</time>
      </trkpt>
      <trkpt lat="42.508710" lon="1.053320">
        <ele>2165.18</ele>
        <time>2018-08-03T15:24:57Z</time>
      </trkpt>
      <trkpt lat="42.508690" lon="1.053320">
        <ele>2164.73</ele>
        <time>2018-08-03T15:25:17Z</time>
      </trkpt>
      <trkpt lat="42.508650" lon="1.053310">
        <ele>2163.81</ele>
        <time>2018-08-03T15:25:37Z</time>
      </trkpt>
      <trkpt lat="42.508610" lon="1.053300">
        <ele>2163.01</ele>
        <time>2018-08-03T15:25:57Z</time>
      </trkpt>
      <trkpt lat="42.508570" lon="1.053280">
        <ele>2162.56</ele>
        <time>2018-08-03T15:26:17Z</time>
      </trkpt>
      <trkpt lat="42.508530" lon="1.053270">
        <ele>2162.14</ele>
        <time>2018-08-03T15:26:37Z</time>
      </trkpt>
      <trkpt lat="42.508490" lon="1.053250">
        <ele>2161.66</ele>
        <time>2018-08-03T15:26:57Z</time>
      </trkpt>
      <trkpt lat="42.508450" lon="1.053230">
        <ele>2161.05</ele>
        <time>2018-08-03T15:27:17Z</time>
      </trkpt>
      <trkpt lat="42.508410" lon="1.053220">
        <ele>2160.53</ele>
        <time>2018-08-03T15:27:37Z</time>
      </trkpt>
      <trkpt lat="42.508370" lon="1.053200">
        <ele>2160.06</ele>
        <time>2018-08-03T15:27:57Z</time>
      </trkpt>
      <trkpt lat="42.508340" lon="1.053170">
        <ele>2159.58</ele>
        <time>2018-08-03T15:28:17Z</time>
      </trkpt>
      <trkpt lat="42.508300" lon="1.053120">
        <ele>2158.93</ele>
        <time>2018-08-03T15:28:37Z</time>
      </trkpt>
      <trkpt lat="42.508270" lon="1.053090">
        <ele>2158.58</ele>
        <time>2018-08-03T15:28:57Z</time>
      </trkpt>
      <trkpt lat="42.508230" lon="1.053070">
        <ele>2158.04</ele>
        <time>2018-08-03T15:29:17Z</time>
      </trkpt>
      <trkpt lat="42.508190" lon="1.053050">
        <ele>2157.41</ele>
        <time>2018-08-03T15:29:37Z</time>
      </trkpt>
      <trkpt lat="42.508150" lon="1.053020">
        <ele>2156.81</ele>
        <time>2018-08-03T15:29:57Z</time>
      </trkpt>
      <trkpt lat="42.508120" lon="1.053010">
        <ele>2156.48</ele>
        <time>2018-08-03T15:30:17Z</time>
      </trkpt>
      <trkpt lat="42.508070" lon="1.052990">
        <ele>2155.76</ele>
        <time>2018-08-03T15:30:37Z</time>
      </trkpt>
      <trkpt lat="42.508020" lon="1.052960">
        <ele>2155.51</ele>
        <time>2018-08-03T15:30:57Z</time>
      </trkpt>
      <trkpt lat="42.507980" lon="1.052920">
        <ele>2155.39</ele>
        <time>2018-08-03T15:31:17Z</time>
      </trkpt>
      <trkpt lat="42.507940" lon="1.052900">
        <ele>2155.28</ele>
        <time>2018-08-03T15:31:37Z</time>
      </trkpt>
      <trkpt lat="42.507900" lon="1.052870">
        <ele>2155.07</ele>
        <time>2018-08-03T15:31:57Z</time>
      </trkpt>
      <trkpt lat="42.507860" lon="1.052840">
        <ele>2154.81</ele>
        <time>2018-08-03T15:32:17Z</time>
      </trkpt>
      <trkpt lat="42.507820" lon="1.052810">
        <ele>2154.44</ele>
        <time>2018-08-03T15:32:37Z</time>
      </trkpt>
      <trkpt lat="42.507790" lon="1.052780">
        <ele>2154.05</ele>
        <time>2018-08-03T15:32:57Z</time>
      </trkpt>
      <trkpt lat="42.507790" lon="1.052760">
        <ele>2153.78</ele>
        <time>2018-08-03T15:33:17Z</time>
      </trkpt>
      <trkpt lat="42.507770" lon="1.052740">
        <ele>2153.51</ele>
        <time>2018-08-03T15:33:37Z</time>
      </trkpt>
      <trkpt lat="42.507730" lon="1.052710">
        <ele>2153.52</ele>
        <time>2018-08-03T15:33:57Z</time>
      </trkpt>
      <trkpt lat="42.507690" lon="1.052680">
        <ele>2153.38</ele>
        <time>2018-08-03T15:34:17Z</time>
      </trkpt>
      <trkpt lat="42.507650" lon="1.052630">
        <ele>2152.87</ele>
        <time>2018-08-03T15:34:37Z</time>
      </trkpt>
      <trkpt lat="42.507620" lon="1.052590">
        <ele>2152.26</ele>
        <time>2018-08-03T15:34:57Z</time>
      </trkpt>
      <trkpt lat="42.507580" lon="1.052540">
        <ele>2151.55</ele>
        <time>2018-08-03T15:35:17Z</time>
      </trkpt>
      <trkpt lat="42.507550" lon="1.052500">
        <ele>2150.83</ele>
        <time>2018-08-03T15:35:37Z</time>
      </trkpt>
      <trkpt lat="42.507490" lon="1.052450">
        <ele>2150.03</ele>
        <time>2018-08-03T15:35:57Z</time>
      </trkpt>
      <trkpt lat="42.507450" lon="1.052420">
        <ele>2148.92</ele>
        <time>2018-08-03T15:36:17Z</time>
      </trkpt>
      <trkpt lat="42.507400" lon="1.052400">
        <ele>2147.74</ele>
        <time>2018-08-03T15:36:37Z</time>
      </trkpt>
      <trkpt lat="42.507380" lon="1.052390">
        <ele>2147.25</ele>
        <time>2018-08-03T15:36:57Z</time>
      </trkpt>
      <trkpt lat="42.507340" lon="1.052390">
        <ele>2146.67</ele>
        <time>2018-08-03T15:37:17Z</time>
      </trkpt>
      <trkpt lat="42.507300" lon="1.052380">
        <ele>2145.71</ele>
        <time>2018-08-03T15:37:37Z</time>
      </trkpt>
      <trkpt lat="42.507250" lon="1.052380">
        <ele>2145.01</ele>
        <time>2018-08-03T15:37:57Z</time>
      </trkpt>
      <trkpt lat="42.507220" lon="1.052410">
        <ele>2145.40</ele>
        <time>2018-08-03T15:38:17Z</time>
      </trkpt>
      <trkpt lat="42.507180" lon="1.052450">
        <ele>2145.45</ele>
        <time>2018-08-03T15:38:37Z</time>
      </trkpt>
      <trkpt lat="42.507150" lon="1.052490">
        <ele>2145.51</ele>
        <time>2018-08-03T15:38:57Z</time>
      </trkpt>
      <trkpt lat="42.507130" lon="1.052520">
        <ele>2145.68</ele>
        <time>2018-08-03T15:39:17Z</time>
      </trkpt>
      <trkpt lat="42.507100" lon="1.052520">
        <ele>2144.63</ele>
        <time>2018-08-03T15:39:37Z</time>
      </trkpt>
      <trkpt lat="42.507080" lon="1.052530">
        <ele>2144.39</ele>
        <time>2018-08-03T15:39:57Z</time>
      </trkpt>
      <trkpt lat="42.507040" lon="1.052570">
        <ele>2144.25</ele>
        <time>2018-08-03T15:40:17Z</time>
      </trkpt>
      <trkpt lat="42.507000" lon="1.052600">
        <ele>2143.94</ele>
        <time>2018-08-03T15:40:37Z</time>
      </trkpt>
      <trkpt lat="42.506960" lon="1.052620">
        <ele>2143.37</ele>
        <time>2018-08-03T15:40:57Z</time>
      </trkpt>
      <trkpt lat="42.506940" lon="1.052630">
        <ele>2143.17</ele>
        <time>2018-08-03T15:41:17Z</time>
      </trkpt>
      <trkpt lat="42.506900" lon="1.052640">
        <ele>2142.31</ele>
        <time>2018-08-03T15:41:37Z</time>
      </trkpt>
      <trkpt lat="42.506860" lon="1.052650">
        <ele>2141.43</ele>
        <time>2018-08-03T15:41:57Z</time>
      </trkpt>
      <trkpt lat="42.506840" lon="1.052650">
        <ele>2140.84</ele>
        <time>2018-08-03T15:42:17Z</time>
      </trkpt>
      <trkpt lat="42.506800" lon="1.052660">
        <ele>2139.97</ele>
        <time>2018-08-03T15:42:37Z</time>
      </trkpt>
      <trkpt lat="42.506760" lon="1.052690">
        <ele>2139.42</ele>
        <time>2018-08-03T15:42:57Z</time>
      </trkpt>
      <trkpt lat="42.506720" lon="1.052700">
        <ele>2138.33</ele>
        <time>2018-08-03T15:43:17Z</time>
      </trkpt>
      <trkpt lat="42.506690" lon="1.052740">
        <ele>2138.15</ele>
        <time>2018-08-03T15:43:37Z</time>
      </trkpt>
      <trkpt lat="42.506680" lon="1.052750">
        <ele>2138.04</ele>
        <time>2018-08-03T15:43:57Z</time>
      </trkpt>
      <trkpt lat="42.506660" lon="1.052770">
        <ele>2137.76</ele>
        <time>2018-08-03T15:44:17Z</time>
      </trkpt>
      <trkpt lat="42.506630" lon="1.052770">
        <ele>2136.82</ele>
        <time>2018-08-03T15:44:37Z</time>
      </trkpt>
      <trkpt lat="42.506610" lon="1.052760">
        <ele>2136.26</ele>
        <time>2018-08-03T15:44:57Z</time>
      </trkpt>
      <trkpt lat="42.506570" lon="1.052760">
        <ele>2135.15</ele>
        <time>2018-08-03T15:45:17Z</time>
      </trkpt>
      <trkpt lat="42.506550" lon="1.052760">
        <ele>2134.61</ele>
        <time>2018-08-03T15:45:37Z</time>
      </trkpt>
      <trkpt lat="42.506540" lon="1.052770">
        <ele>2134.33</ele>
        <time>2018-08-03T15:45:57Z</time>
      </trkpt>
      <trkpt lat="42.506500" lon="1.052800">
        <ele>2133.62</ele>
        <time>2018-08-03T15:46:17Z</time>
      </trkpt>
      <trkpt lat="42.506460" lon="1.052820">
        <ele>2132.89</ele>
        <time>2018-08-03T15:46:37Z</time>
      </trkpt>
      <trkpt lat="42.506420" lon="1.052870">
        <ele>2132.37</ele>
        <time>2018-08-03T15:46:57Z</time>
      </trkpt>
      <trkpt lat="42.506370" lon="1.052890">
        <ele>2131.68</ele>
        <time>2018-08-03T15:47:17Z</time>
      </trkpt>
      <trkpt lat="42.506330" lon="1.052920">
        <ele>2131.76</ele>
        <time>2018-08-03T15:47:37Z</time>
      </trkpt>
      <trkpt lat="42.506280" lon="1.052910">
        <ele>2131.48</ele>
        <time>2018-08-03T15:47:57Z</time>
      </trkpt>
    </trkseg>
  </trk>
</gpx>
